Observation data for Fort Chadbourne on 07/05/2020      Previous  Date       Current Mesonet Observations  Soil Data  Daily Summary Page  Observations in Plain Language
KCH1 050500Z 01001KT 28/17 A2991 RMK A01 T02780174  RH  053%=      5-min Rain = 0
KCH1 050501Z 05001KT 28/17 A2991 RMK A01 T02780171  RH  052%=      5-min Rain = 0
KCH1 050502Z 00000KT 28/17 A2991 RMK A01 T02790171  RH  052%=      5-min Rain = 0
KCH1 050503Z 07001KT 28/17 A2991 RMK A01 T02810170  RH  051%=      5-min Rain = 0
KCH1 050504Z 10001KT 28/17 A2991 RMK A01 T02820168  RH  050%=      5-min Rain = 0
KCH1 050505Z 10000KT 28/17 A2991 RMK A01 T02840170  RH  050%=      5-min Rain = 0
KCH1 050506Z 00000KT 28/17 A2991 RMK A01 T02840168  RH  049%=      5-min Rain = 0
KCH1 050507Z 14000KT 29/17 A2991 RMK A01 T02850168  RH  049%=      5-min Rain = 0
KCH1 050508Z 13001KT 29/17 A2991 RMK A01 T02860167  RH  049%=      5-min Rain = 0
KCH1 050509Z 13001KT 29/17 A2991 RMK A01 T02860167  RH  048%=      5-min Rain = 0
KCH1 050510Z 12001KT 29/17 A2991 RMK A01 T02860167  RH  048%=      5-min Rain = 0
KCH1 050511Z 09000KT 29/17 A2991 RMK A01 T02870166  RH  048%=      5-min Rain = 0
KCH1 050512Z 09002KT 29/17 A2991 RMK A01 T02880166  RH  048%=      5-min Rain = 0
KCH1 050513Z 11001KT 29/17 A2991 RMK A01 T02890166  RH  047%=      5-min Rain = 0
KCH1 050514Z 09001KT 29/17 A2991 RMK A01 T02900166  RH  047%=      5-min Rain = 0
KCH1 050515Z 10001KT 29/17 A2991 RMK A01 T02910166  RH  047%=      5-min Rain = 0
KCH1 050516Z 05000KT 29/17 A2991 RMK A01 T02910166  RH  047%=      5-min Rain = 0
KCH1 050517Z 08000KT 29/17 A2991 RMK A01 T02910166  RH  047%=      5-min Rain = 0
KCH1 050518Z 11001KT 29/17 A2991 RMK A01 T02910166  RH  047%=      5-min Rain = 0
KCH1 050519Z 14000KT 29/17 A2991 RMK A01 T02910172  RH  049%=      5-min Rain = 0
KCH1 050520Z 18000KT 29/17 A2991 RMK A01 T02880172  RH  050%=      5-min Rain = 0
KCH1 050521Z 00000KT 29/17 A2991 RMK A01 T02860170  RH  050%=      5-min Rain = 0
KCH1 050522Z 00000KT 29/17 A299 RMK A01 T02850169  RH  050%=      5-min Rain = 0
KCH1 050523Z 15001KT 28/17 A299 RMK A01 T02840168  RH  049%=      5-min Rain = 0
KCH1 050524Z 12002KT 28/17 A299 RMK A01 T02840169  RH  050%=      5-min Rain = 0
KCH1 050525Z 11002KT 28/17 A299 RMK A01 T02840168  RH  050%=      5-min Rain = 0
KCH1 050526Z 10001KT 28/17 A299 RMK A01 T02840167  RH  049%=      5-min Rain = 0
KCH1 050527Z 13001KT 28/17 A299 RMK A01 T02840165  RH  049%=      5-min Rain = 0
KCH1 050528Z 12001KT 29/17 A299 RMK A01 T02850166  RH  049%=      5-min Rain = 0
KCH1 050529Z 12002KT 29/17 A299 RMK A01 T02850167  RH  049%=      5-min Rain = 0
KCH1 050530Z 12001KT 29/17 A299 RMK A01 T02850167  RH  049%=      5-min Rain = 0
KCH1 050531Z 10001KT 29/17 A299 RMK A01 T02860168  RH  049%=      5-min Rain = 0
KCH1 050532Z 10000KT 29/17 A299 RMK A01 T02850167  RH  049%=      5-min Rain = 0
KCH1 050533Z 10001KT 29/17 A299 RMK A01 T02850167  RH  049%=      5-min Rain = 0
KCH1 050534Z 11001KT 29/17 A299 RMK A01 T02850167  RH  049%=      5-min Rain = 0
KCH1 050535Z 10001KT 28/17 A299 RMK A01 T02840167  RH  049%=      5-min Rain = 0
KCH1 050536Z 07001KT 28/17 A299 RMK A01 T02840167  RH  049%=      5-min Rain = 0
KCH1 050537Z 09002KT 28/17 A299 RMK A01 T02840168  RH  049%=      5-min Rain = 0
KCH1 050538Z 15001KT 28/17 A299 RMK A01 T02830168  RH  050%=      5-min Rain = 0
KCH1 050539Z 00000KT 28/17 A299 RMK A01 T02820170  RH  051%=      5-min Rain = 0
KCH1 050540Z 11000KT 28/17 A299 RMK A01 T02810171  RH  051%=      5-min Rain = 0
KCH1 050541Z 05000KT 28/17 A299 RMK A01 T02800173  RH  052%=      5-min Rain = 0
KCH1 050542Z 00000KT 28/17 A299 RMK A01 T02790172  RH  052%=      5-min Rain = 0
KCH1 050543Z 05000KT 28/17 A299 RMK A01 T02780170  RH  052%=      5-min Rain = 0
KCH1 050544Z 00000KT 28/17 A299 RMK A01 T02780169  RH  052%=      5-min Rain = 0
KCH1 050545Z 15001KT 28/17 A299 RMK A01 T02780169  RH  051%=      5-min Rain = 0
KCH1 050546Z 11001KT 28/17 A299 RMK A01 T02780169  RH  051%=      5-min Rain = 0
KCH1 050547Z 11000KT 28/17 A299 RMK A01 T02780168  RH  051%=      5-min Rain = 0
KCH1 050548Z 11001KT 28/17 A299 RMK A01 T02790166  RH  050%=      5-min Rain = 0
KCH1 050549Z 11000KT 28/17 A299 RMK A01 T02790166  RH  050%=      5-min Rain = 0
KCH1 050550Z 10001KT 28/17 A299 RMK A01 T02800168  RH  051%=      5-min Rain = 0
KCH1 050551Z 11002KT 28/17 A299 RMK A01 T02800167  RH  050%=      5-min Rain = 0
KCH1 050552Z 10002KT 28/17 A299 RMK A01 T02800167  RH  050%=      5-min Rain = 0
KCH1 050553Z 11003KT 28/17 A299 RMK A01 T02800167  RH  050%=      5-min Rain = 0
KCH1 050554Z 09002KT 28/17 A299 RMK A01 T02810167  RH  050%=      5-min Rain = 0
KCH1 050555Z 09003KT 28/17 A299 RMK A01 T02810169  RH  050%=      5-min Rain = 0
KCH1 050556Z 07002KT 28/17 A299 RMK A01 T02800170  RH  051%=      5-min Rain = 0
KCH1 050557Z 08003KT 28/17 A299 RMK A01 T02770170  RH  052%=      5-min Rain = 0
KCH1 050558Z 08003KT 28/17 A299 RMK A01 T02750172  RH  053%=      5-min Rain = 0
KCH1 050559Z 08003KT 27/17 A299 RMK A01 T02710173  RH  055%=      5-min Rain = 0
KCH1 050600Z 09004KT 27/17 A299 RMK A01 T02690173  RH  056%=      5-min Rain = 0
KCH1 050601Z 09004KT 27/17 A299 RMK A01 T02670173  RH  056%=      5-min Rain = 0
KCH1 050602Z 09004KT 27/17 A299 RMK A01 T02650173  RH  057%=      5-min Rain = 0
KCH1 050603Z 09003KT 26/17 A299 RMK A01 T02640172  RH  057%=      5-min Rain = 0
KCH1 050604Z 09003KT 26/17 A299 RMK A01 T02630174  RH  058%=      5-min Rain = 0
KCH1 050605Z 09003KT 26/17 A299 RMK A01 T02610174  RH  059%=      5-min Rain = 0
KCH1 050606Z 08004KT 26/17 A299 RMK A01 T02610172  RH  058%=      5-min Rain = 0
KCH1 050607Z 10004KT 26/17 A299 RMK A01 T02610172  RH  058%=      5-min Rain = 0
KCH1 050608Z 09003KT 26/17 A299 RMK A01 T02610172  RH  058%=      5-min Rain = 0
KCH1 050609Z 09004KT 26/17 A299 RMK A01 T02610173  RH  058%=      5-min Rain = 0
KCH1 050610Z 09005KT 26/17 A299 RMK A01 T02610174  RH  059%=      5-min Rain = 0
KCH1 050611Z 09004KT 26/17 A299 RMK A01 T02600174  RH  059%=      5-min Rain = 0
KCH1 050612Z 09004KT 26/18 A299 RMK A01 T02590175  RH  060%=      5-min Rain = 0
KCH1 050613Z 09004KT 26/17 A299 RMK A01 T02580174  RH  060%=      5-min Rain = 0
KCH1 050614Z 10003KT 26/17 A299 RMK A01 T02580172  RH  059%=      5-min Rain = 0
KCH1 050615Z 09003KT 26/17 A299 RMK A01 T02590171  RH  058%=      5-min Rain = 0
KCH1 050616Z 08003KT 26/17 A299 RMK A01 T02600172  RH  058%=      5-min Rain = 0
KCH1 050617Z 08003KT 26/17 A299 RMK A01 T02600171  RH  058%=      5-min Rain = 0
KCH1 050618Z 08003KT 26/17 A299 RMK A01 T02600171  RH  058%=      5-min Rain = 0
KCH1 050619Z 09002KT 26/17 A299 RMK A01 T02600170  RH  057%=      5-min Rain = 0
KCH1 050620Z 10003KT 26/17 A299 RMK A01 T02610169  RH  057%=      5-min Rain = 0
KCH1 050621Z 09002KT 26/17 A299 RMK A01 T02620168  RH  056%=      5-min Rain = 0
KCH1 050622Z 10002KT 26/17 A299 RMK A01 T02640168  RH  056%=      5-min Rain = 0
KCH1 050623Z 10002KT 27/17 A299 RMK A01 T02650168  RH  055%=      5-min Rain = 0
KCH1 050624Z 11001KT 27/17 A299 RMK A01 T02650168  RH  055%=      5-min Rain = 0
KCH1 050625Z 10001KT 27/17 A299 RMK A01 T02660167  RH  055%=      5-min Rain = 0
KCH1 050626Z 12001KT 27/17 A299 RMK A01 T02670167  RH  054%=      5-min Rain = 0
KCH1 050627Z 12001KT 27/17 A299 RMK A01 T02680166  RH  054%=      5-min Rain = 0
KCH1 050628Z 11002KT 27/17 A299 RMK A01 T02680166  RH  054%=      5-min Rain = 0
KCH1 050629Z 12002KT 27/17 A299 RMK A01 T02690166  RH  053%=      5-min Rain = 0
KCH1 050630Z 12002KT 27/17 A299 RMK A01 T02700166  RH  053%=      5-min Rain = 0
KCH1 050631Z 10001KT 27/17 A299 RMK A01 T02700166  RH  053%=      5-min Rain = 0
KCH1 050632Z 09000KT 27/17 A299 RMK A01 T02710166  RH  053%=      5-min Rain = 0
KCH1 050633Z 10000KT 27/17 A299 RMK A01 T02710166  RH  053%=      5-min Rain = 0
KCH1 050634Z 10000KT 27/17 A299 RMK A01 T02710167  RH  053%=      5-min Rain = 0
KCH1 050635Z 09001KT 27/17 A299 RMK A01 T02710167  RH  053%=      5-min Rain = 0
KCH1 050636Z 07001KT 27/17 A299 RMK A01 T02710166  RH  053%=      5-min Rain = 0
KCH1 050637Z 06001KT 27/17 A299 RMK A01 T02710166  RH  053%=      5-min Rain = 0
KCH1 050638Z 06002KT 27/17 A299 RMK A01 T02700166  RH  053%=      5-min Rain = 0
KCH1 050639Z 06002KT 27/17 A299 RMK A01 T02700166  RH  053%=      5-min Rain = 0
KCH1 050640Z 06002KT 27/17 A299 RMK A01 T02690166  RH  053%=      5-min Rain = 0
KCH1 050641Z 06002KT 27/17 A299 RMK A01 T02680166  RH  054%=      5-min Rain = 0
KCH1 050642Z 06002KT 27/17 A299 RMK A01 T02670166  RH  054%=      5-min Rain = 0
KCH1 050643Z 07002KT 27/17 A299 RMK A01 T02670166  RH  054%=      5-min Rain = 0
KCH1 050644Z 07002KT 27/17 A299 RMK A01 T02660166  RH  054%=      5-min Rain = 0
KCH1 050645Z 07003KT 27/17 A299 RMK A01 T02660166  RH  054%=      5-min Rain = 0
KCH1 050646Z 07003KT 27/17 A299 RMK A01 T02660166  RH  054%=      5-min Rain = 0
KCH1 050647Z 07003KT 27/17 A299 RMK A01 T02650166  RH  055%=      5-min Rain = 0
KCH1 050648Z 07004KT 26/17 A2991 RMK A01 T02640167  RH  055%=      5-min Rain = 0
KCH1 050649Z 07004KT 26/17 A2991 RMK A01 T02630167  RH  056%=      5-min Rain = 0
KCH1 050650Z 07004KT 26/17 A2991 RMK A01 T02600167  RH  056%=      5-min Rain = 0
KCH1 050651Z 07004KT 26/17 A2991 RMK A01 T02590167  RH  057%=      5-min Rain = 0
KCH1 050652Z 07004KT 26/17 A2991 RMK A01 T02570168  RH  058%=      5-min Rain = 0
KCH1 050653Z 08005KT 25/17 A2991 RMK A01 T02540169  RH  059%=      5-min Rain = 0
KCH1 050654Z 08005KT 25/17 A2991 RMK A01 T02520171  RH  061%=      5-min Rain = 0
KCH1 050655Z 08005KT 25/17 A2991 RMK A01 T02500171  RH  062%=      5-min Rain = 0
KCH1 050656Z 08005KT 25/17 A2991 RMK A01 T02470170  RH  062%=      5-min Rain = 0
KCH1 050657Z 08005KT 25/17 A2991 RMK A01 T02460170  RH  063%=      5-min Rain = 0
KCH1 050658Z 08004KT 25/17 A2991 RMK A01 T02460171  RH  063%=      5-min Rain = 0
KCH1 050659Z 08004KT 25/17 A2991 RMK A01 T02450171  RH  063%=      5-min Rain = 0
KCH1 050700Z 08005KT 25/17 A2991 RMK A01 T02450171  RH  063%=      5-min Rain = 0
KCH1 050701Z 08004KT 25/17 A2991 RMK A01 T02450170  RH  063%=      5-min Rain = 0
KCH1 050702Z 08004KT 25/17 A2991 RMK A01 T02460169  RH  062%=      5-min Rain = 0
KCH1 050703Z 08004KT 25/17 A2991 RMK A01 T02470169  RH  062%=      5-min Rain = 0
KCH1 050704Z 08004KT 25/17 A2991 RMK A01 T02480169  RH  062%=      5-min Rain = 0
KCH1 050705Z 08004KT 25/17 A2991 RMK A01 T02480170  RH  062%=      5-min Rain = 0
KCH1 050706Z 07004KT 25/17 A2991 RMK A01 T02480170  RH  062%=      5-min Rain = 0
KCH1 050707Z 08004KT 25/17 A2991 RMK A01 T02480170  RH  062%=      5-min Rain = 0
KCH1 050708Z 08004KT 25/17 A2991 RMK A01 T02470169  RH  062%=      5-min Rain = 0
KCH1 050709Z 08004KT 25/17 A2991 RMK A01 T02470169  RH  062%=      5-min Rain = 0
KCH1 050710Z 08004KT 25/17 A2991 RMK A01 T02480169  RH  062%=      5-min Rain = 0
KCH1 050711Z 08004KT 25/17 A2991 RMK A01 T02480169  RH  062%=      5-min Rain = 0
KCH1 050712Z 08004KT 25/17 A2991 RMK A01 T02470169  RH  062%=      5-min Rain = 0
KCH1 050713Z 08004KT 25/17 A2991 RMK A01 T02480169  RH  062%=      5-min Rain = 0
KCH1 050714Z 08003KT 25/17 A2991 RMK A01 T02470169  RH  062%=      5-min Rain = 0
KCH1 050715Z 08003KT 25/17 A2991 RMK A01 T02470169  RH  062%=      5-min Rain = 0
KCH1 050716Z 08004KT 25/17 A2991 RMK A01 T02470169  RH  062%=      5-min Rain = 0
KCH1 050717Z 08004KT 25/17 A2991 RMK A01 T02460169  RH  062%=      5-min Rain = 0
KCH1 050718Z 08005KT 25/17 A2991 RMK A01 T02460169  RH  062%=      5-min Rain = 0
KCH1 050719Z 08004KT 25/17 A2991 RMK A01 T02460168  RH  062%=      5-min Rain = 0
KCH1 050720Z 08004KT 25/17 A2991 RMK A01 T02470168  RH  061%=      5-min Rain = 0
KCH1 050721Z 09003KT 25/17 A2991 RMK A01 T02480168  RH  061%=      5-min Rain = 0
KCH1 050722Z 09004KT 25/17 A2991 RMK A01 T02490169  RH  061%=      5-min Rain = 0
KCH1 050723Z 09004KT 25/17 A2991 RMK A01 T02490168  RH  061%=      5-min Rain = 0
KCH1 050724Z 09004KT 25/17 A2991 RMK A01 T02490169  RH  061%=      5-min Rain = 0
KCH1 050725Z 09003KT 25/17 A2991 RMK A01 T02490169  RH  061%=      5-min Rain = 0
KCH1 050726Z 09003KT 25/17 A2991 RMK A01 T02490169  RH  061%=      5-min Rain = 0
KCH1 050727Z 09003KT 25/17 A2991 RMK A01 T02480169  RH  061%=      5-min Rain = 0
KCH1 050728Z 09003KT 25/17 A2991 RMK A01 T02480169  RH  061%=      5-min Rain = 0
KCH1 050729Z 09004KT 25/17 A2991 RMK A01 T02480169  RH  061%=      5-min Rain = 0
KCH1 050730Z 09003KT 25/17 A2991 RMK A01 T02480169  RH  061%=      5-min Rain = 0
KCH1 050731Z 09003KT 25/17 A2991 RMK A01 T02480169  RH  061%=      5-min Rain = 0
KCH1 050732Z 09003KT 25/17 A2991 RMK A01 T02480169  RH  061%=      5-min Rain = 0
KCH1 050733Z 09003KT 25/17 A2991 RMK A01 T02480169  RH  061%=      5-min Rain = 0
KCH1 050734Z 09003KT 25/17 A2991 RMK A01 T02480169  RH  061%=      5-min Rain = 0
KCH1 050735Z 09003KT 25/17 A2991 RMK A01 T02480169  RH  061%=      5-min Rain = 0
KCH1 050736Z 09003KT 25/17 A2991 RMK A01 T02480168  RH  061%=      5-min Rain = 0
KCH1 050737Z 08002KT 25/17 A2991 RMK A01 T02480168  RH  061%=      5-min Rain = 0
KCH1 050738Z 08002KT 25/17 A2991 RMK A01 T02480168  RH  061%=      5-min Rain = 0
KCH1 050739Z 07002KT 25/17 A2991 RMK A01 T02480168  RH  061%=      5-min Rain = 0
KCH1 050740Z 06002KT 25/17 A2991 RMK A01 T02470168  RH  061%=      5-min Rain = 0
KCH1 050741Z 06002KT 25/17 A2991 RMK A01 T02470168  RH  062%=      5-min Rain = 0
KCH1 050742Z 05003KT 25/17 A2991 RMK A01 T02460168  RH  062%=      5-min Rain = 0
KCH1 050743Z 05003KT 25/17 A2991 RMK A01 T02450168  RH  062%=      5-min Rain = 0
KCH1 050744Z 05003KT 25/17 A2991 RMK A01 T02450168  RH  062%=      5-min Rain = 0
KCH1 050745Z 06003KT 24/17 A2991 RMK A01 T02440169  RH  063%=      5-min Rain = 0
KCH1 050746Z 05003KT 24/17 A2991 RMK A01 T02440168  RH  063%=      5-min Rain = 0
KCH1 050747Z 05003KT 24/17 A2991 RMK A01 T02440168  RH  063%=      5-min Rain = 0
KCH1 050748Z 05004KT 24/17 A2991 RMK A01 T02440168  RH  062%=      5-min Rain = 0
KCH1 050749Z 06004KT 24/17 A2991 RMK A01 T02440167  RH  062%=      5-min Rain = 0
KCH1 050750Z 06004KT 25/17 A2991 RMK A01 T02450167  RH  062%=      5-min Rain = 0
KCH1 050751Z 06004KT 25/17 A2992 RMK A01 T02460167  RH  062%=      5-min Rain = 0
KCH1 050752Z 07004KT 25/17 A2992 RMK A01 T02460167  RH  061%=      5-min Rain = 0
KCH1 050753Z 07004KT 25/17 A2991 RMK A01 T02470167  RH  061%=      5-min Rain = 0
KCH1 050754Z 07004KT 25/17 A2991 RMK A01 T02470167  RH  061%=      5-min Rain = 0
KCH1 050755Z 07003KT 25/17 A2991 RMK A01 T02470168  RH  061%=      5-min Rain = 0
KCH1 050756Z 08003KT 25/17 A2991 RMK A01 T02460167  RH  062%=      5-min Rain = 0
KCH1 050757Z 08003KT 25/17 A2991 RMK A01 T02460167  RH  062%=      5-min Rain = 0
KCH1 050758Z 08003KT 25/17 A2991 RMK A01 T02450167  RH  062%=      5-min Rain = 0
KCH1 050759Z 08003KT 25/17 A2991 RMK A01 T02460167  RH  062%=      5-min Rain = 0
KCH1 050800Z 09003KT 25/17 A2991 RMK A01 T02450167  RH  062%=      5-min Rain = 0
KCH1 050801Z 09003KT 25/17 A2991 RMK A01 T02450167  RH  062%=      5-min Rain = 0
KCH1 050802Z 10004KT 25/17 A2991 RMK A01 T02450167  RH  062%=      5-min Rain = 0
KCH1 050803Z 10004KT 25/17 A2991 RMK A01 T02450167  RH  062%=      5-min Rain = 0
KCH1 050804Z 10004KT 25/17 A2991 RMK A01 T02450167  RH  062%=      5-min Rain = 0
KCH1 050805Z 10004KT 25/17 A2991 RMK A01 T02450167  RH  062%=      5-min Rain = 0
KCH1 050806Z 10004KT 24/17 A2991 RMK A01 T02440167  RH  062%=      5-min Rain = 0
KCH1 050807Z 10004KT 24/17 A2991 RMK A01 T02440167  RH  062%=      5-min Rain = 0
KCH1 050808Z 10004KT 24/17 A2992 RMK A01 T02440167  RH  062%=      5-min Rain = 0
KCH1 050809Z 10004KT 24/17 A2992 RMK A01 T02430168  RH  063%=      5-min Rain = 0
KCH1 050810Z 10004KT 24/17 A2992 RMK A01 T02420168  RH  063%=      5-min Rain = 0
KCH1 050811Z 10004KT 24/17 A2992 RMK A01 T02420168  RH  063%=      5-min Rain = 0
KCH1 050812Z 09004KT 24/17 A2992 RMK A01 T02410169  RH  064%=      5-min Rain = 0
KCH1 050813Z 10004KT 24/17 A2992 RMK A01 T02400168  RH  064%=      5-min Rain = 0
KCH1 050814Z 09003KT 24/17 A2992 RMK A01 T02390168  RH  064%=      5-min Rain = 0
KCH1 050815Z 10003KT 24/17 A2992 RMK A01 T02390168  RH  064%=      5-min Rain = 0
KCH1 050816Z 10003KT 24/17 A2992 RMK A01 T02390168  RH  065%=      5-min Rain = 0
KCH1 050817Z 10003KT 24/17 A2992 RMK A01 T02390168  RH  064%=      5-min Rain = 0
KCH1 050818Z 09002KT 24/17 A2992 RMK A01 T02380167  RH  064%=      5-min Rain = 0
KCH1 050819Z 08002KT 24/17 A2992 RMK A01 T02390168  RH  064%=      5-min Rain = 0
KCH1 050820Z 08002KT 24/17 A2992 RMK A01 T02390167  RH  064%=      5-min Rain = 0
KCH1 050821Z 07002KT 24/17 A2992 RMK A01 T02380167  RH  064%=      5-min Rain = 0
KCH1 050822Z 07001KT 24/17 A2992 RMK A01 T02380167  RH  064%=      5-min Rain = 0
KCH1 050823Z 07002KT 24/17 A2992 RMK A01 T02380167  RH  064%=      5-min Rain = 0
KCH1 050824Z 07002KT 24/17 A2992 RMK A01 T02390168  RH  064%=      5-min Rain = 0
KCH1 050825Z 07002KT 24/17 A2992 RMK A01 T02380167  RH  064%=      5-min Rain = 0
KCH1 050826Z 07002KT 24/17 A2992 RMK A01 T02390167  RH  064%=      5-min Rain = 0
KCH1 050827Z 07002KT 24/17 A2992 RMK A01 T02390167  RH  064%=      5-min Rain = 0
KCH1 050828Z 06002KT 24/17 A2992 RMK A01 T02390167  RH  064%=      5-min Rain = 0
KCH1 050829Z 06002KT 24/17 A2992 RMK A01 T02390167  RH  064%=      5-min Rain = 0
KCH1 050830Z 06002KT 24/17 A2992 RMK A01 T02390168  RH  064%=      5-min Rain = 0
KCH1 050831Z 06002KT 24/17 A2992 RMK A01 T02390167  RH  064%=      5-min Rain = 0
KCH1 050832Z 06003KT 24/17 A2992 RMK A01 T02390167  RH  064%=      5-min Rain = 0
KCH1 050833Z 06003KT 24/17 A2992 RMK A01 T02390167  RH  064%=      5-min Rain = 0
KCH1 050834Z 07003KT 24/17 A2992 RMK A01 T02390167  RH  064%=      5-min Rain = 0
KCH1 050835Z 07003KT 24/17 A2993 RMK A01 T02400168  RH  064%=      5-min Rain = 0
KCH1 050836Z 07003KT 24/17 A2993 RMK A01 T02390168  RH  065%=      5-min Rain = 0
KCH1 050837Z 06003KT 24/17 A2993 RMK A01 T02380168  RH  065%=      5-min Rain = 0
KCH1 050838Z 06002KT 24/17 A2993 RMK A01 T02380167  RH  065%=      5-min Rain = 0
KCH1 050839Z 06002KT 24/17 A2993 RMK A01 T02380167  RH  064%=      5-min Rain = 0
KCH1 050840Z 06002KT 24/17 A2993 RMK A01 T02380167  RH  064%=      5-min Rain = 0
KCH1 050841Z 06002KT 24/17 A2993 RMK A01 T02390167  RH  064%=      5-min Rain = 0
KCH1 050842Z 06002KT 24/17 A2993 RMK A01 T02400167  RH  064%=      5-min Rain = 0
KCH1 050843Z 06002KT 24/17 A2993 RMK A01 T02410167  RH  063%=      5-min Rain = 0
KCH1 050844Z 06002KT 24/17 A2993 RMK A01 T02410166  RH  063%=      5-min Rain = 0
KCH1 050845Z 05002KT 24/17 A2993 RMK A01 T02410166  RH  063%=      5-min Rain = 0
KCH1 050846Z 06002KT 24/17 A2993 RMK A01 T02420166  RH  063%=      5-min Rain = 0
KCH1 050847Z 06002KT 24/17 A2993 RMK A01 T02430166  RH  062%=      5-min Rain = 0
KCH1 050848Z 06002KT 24/17 A2993 RMK A01 T02430166  RH  062%=      5-min Rain = 0
KCH1 050849Z 07002KT 24/17 A2993 RMK A01 T02440166  RH  062%=      5-min Rain = 0
KCH1 050850Z 07002KT 24/17 A2993 RMK A01 T02440166  RH  062%=      5-min Rain = 0
KCH1 050851Z 07002KT 25/17 A2993 RMK A01 T02450166  RH  061%=      5-min Rain = 0
KCH1 050852Z 07002KT 25/17 A2993 RMK A01 T02450166  RH  061%=      5-min Rain = 0
KCH1 050853Z 07002KT 25/17 A2993 RMK A01 T02450166  RH  062%=      5-min Rain = 0
KCH1 050854Z 07001KT 25/17 A2993 RMK A01 T02450166  RH  061%=      5-min Rain = 0
KCH1 050855Z 07001KT 25/17 A2993 RMK A01 T02450165  RH  061%=      5-min Rain = 0
KCH1 050856Z 06001KT 25/17 A2993 RMK A01 T02450165  RH  061%=      5-min Rain = 0
KCH1 050857Z 07001KT 25/17 A2993 RMK A01 T02460165  RH  061%=      5-min Rain = 0
KCH1 050858Z 08001KT 25/17 A2993 RMK A01 T02460165  RH  061%=      5-min Rain = 0
KCH1 050859Z 08001KT 25/17 A2992 RMK A01 T02460165  RH  061%=      5-min Rain = 0
KCH1 050900Z 07001KT 25/17 A2992 RMK A01 T02460165  RH  061%=      5-min Rain = 0
KCH1 050901Z 07001KT 25/17 A2992 RMK A01 T02460165  RH  061%=      5-min Rain = 0
KCH1 050902Z 07001KT 25/17 A2992 RMK A01 T02460166  RH  061%=      5-min Rain = 0
KCH1 050903Z 09001KT 25/17 A2992 RMK A01 T02460165  RH  061%=      5-min Rain = 0
KCH1 050904Z 09001KT 25/17 A2992 RMK A01 T02450165  RH  061%=      5-min Rain = 0
KCH1 050905Z 09001KT 25/17 A2992 RMK A01 T02450165  RH  061%=      5-min Rain = 0
KCH1 050906Z 08001KT 24/17 A2992 RMK A01 T02440166  RH  062%=      5-min Rain = 0
KCH1 050907Z 08001KT 24/17 A2992 RMK A01 T02430165  RH  062%=      5-min Rain = 0
KCH1 050908Z 08002KT 24/17 A2992 RMK A01 T02430165  RH  061%=      5-min Rain = 0
KCH1 050909Z 10002KT 24/17 A2992 RMK A01 T02430165  RH  062%=      5-min Rain = 0
KCH1 050910Z 10002KT 24/17 A2992 RMK A01 T02420166  RH  062%=      5-min Rain = 0
KCH1 050911Z 10002KT 24/17 A2992 RMK A01 T02410166  RH  063%=      5-min Rain = 0
KCH1 050912Z 10002KT 24/17 A2992 RMK A01 T02400166  RH  063%=      5-min Rain = 0
KCH1 050913Z 10002KT 24/17 A2992 RMK A01 T02400167  RH  064%=      5-min Rain = 0
KCH1 050914Z 11002KT 24/17 A2992 RMK A01 T02380167  RH  064%=      5-min Rain = 0
KCH1 050915Z 10002KT 24/17 A2992 RMK A01 T02370167  RH  065%=      5-min Rain = 0
KCH1 050916Z 11002KT 24/17 A2992 RMK A01 T02370167  RH  065%=      5-min Rain = 0
KCH1 050917Z 10001KT 24/17 A2992 RMK A01 T02360166  RH  065%=      5-min Rain = 0
KCH1 050918Z 10001KT 24/17 A2992 RMK A01 T02360165  RH  064%=      5-min Rain = 0
KCH1 050919Z 09001KT 24/17 A2992 RMK A01 T02360165  RH  064%=      5-min Rain = 0
KCH1 050920Z 08001KT 24/17 A2992 RMK A01 T02360166  RH  065%=      5-min Rain = 0
KCH1 050921Z 07000KT 24/17 A2992 RMK A01 T02360167  RH  065%=      5-min Rain = 0
KCH1 050922Z 05001KT 24/17 A2992 RMK A01 T02360166  RH  065%=      5-min Rain = 0
KCH1 050923Z 05001KT 24/17 A2992 RMK A01 T02360167  RH  065%=      5-min Rain = 0
KCH1 050924Z 03001KT 24/17 A2992 RMK A01 T02360166  RH  065%=      5-min Rain = 0
KCH1 050925Z 03001KT 24/17 A2993 RMK A01 T02360167  RH  065%=      5-min Rain = 0
KCH1 050926Z 03001KT 24/17 A2993 RMK A01 T02350167  RH  065%=      5-min Rain = 0
KCH1 050927Z 04002KT 24/17 A2993 RMK A01 T02350165  RH  065%=      5-min Rain = 0
KCH1 050928Z 04002KT 24/17 A2993 RMK A01 T02360165  RH  064%=      5-min Rain = 0
KCH1 050929Z 04002KT 24/16 A2993 RMK A01 T02360164  RH  064%=      5-min Rain = 0
KCH1 050930Z 04002KT 24/16 A2993 RMK A01 T02380164  RH  063%=      5-min Rain = 0
KCH1 050931Z 03002KT 24/17 A2993 RMK A01 T02380169  RH  066%=      5-min Rain = 0
KCH1 050932Z 03003KT 24/17 A2992 RMK A01 T02360168  RH  065%=      5-min Rain = 0
KCH1 050933Z 04003KT 24/17 A2992 RMK A01 T02350166  RH  065%=      5-min Rain = 0
KCH1 050934Z 04002KT 24/17 A2992 RMK A01 T02350166  RH  065%=      5-min Rain = 0
KCH1 050935Z 04003KT 23/17 A2992 RMK A01 T02340167  RH  066%=      5-min Rain = 0
KCH1 050936Z 04002KT 23/17 A2992 RMK A01 T02330166  RH  066%=      5-min Rain = 0
KCH1 050937Z 05002KT 23/16 A2992 RMK A01 T02320164  RH  065%=      5-min Rain = 0
KCH1 050938Z 05002KT 23/16 A2992 RMK A01 T02330163  RH  065%=      5-min Rain = 0
KCH1 050939Z 03001KT 23/16 A2992 RMK A01 T02340164  RH  064%=      5-min Rain = 0
KCH1 050940Z 03001KT 24/17 A2992 RMK A01 T02350165  RH  064%=      5-min Rain = 0
KCH1 050941Z 03001KT 24/16 A2992 RMK A01 T02350164  RH  064%=      5-min Rain = 0
KCH1 050942Z 03000KT 24/16 A2992 RMK A01 T02360164  RH  064%=      5-min Rain = 0
KCH1 050943Z 03000KT 24/16 A2992 RMK A01 T02370164  RH  064%=      5-min Rain = 0
KCH1 050944Z 00000KT 24/16 A2992 RMK A01 T02370164  RH  064%=      5-min Rain = 0
KCH1 050945Z 00000KT 24/16 A2992 RMK A01 T02380164  RH  064%=      5-min Rain = 0
KCH1 050946Z 00000KT 24/17 A2992 RMK A01 T02380166  RH  064%=      5-min Rain = 0
KCH1 050947Z 00000KT 24/16 A2992 RMK A01 T02380164  RH  063%=      5-min Rain = 0
KCH1 050948Z 32000KT 24/16 A2992 RMK A01 T02390164  RH  063%=      5-min Rain = 0
KCH1 050949Z 32001KT 24/16 A2992 RMK A01 T02400164  RH  062%=      5-min Rain = 0
KCH1 050950Z 32001KT 24/16 A2992 RMK A01 T02410164  RH  062%=      5-min Rain = 0
KCH1 050951Z 33002KT 24/16 A2992 RMK A01 T02410164  RH  062%=      5-min Rain = 0
KCH1 050952Z 33002KT 24/17 A2992 RMK A01 T02410165  RH  062%=      5-min Rain = 0
KCH1 050953Z 32002KT 24/17 A2992 RMK A01 T02410165  RH  063%=      5-min Rain = 0
KCH1 050954Z 33003KT 24/17 A2992 RMK A01 T02400167  RH  063%=      5-min Rain = 0
KCH1 050955Z 33003KT 24/17 A2992 RMK A01 T02400166  RH  064%=      5-min Rain = 0
KCH1 050956Z 33003KT 24/17 A2992 RMK A01 T02390165  RH  063%=      5-min Rain = 0
KCH1 050957Z 33003KT 24/17 A2992 RMK A01 T02390165  RH  063%=      5-min Rain = 0
KCH1 050958Z 32002KT 24/16 A2993 RMK A01 T02390164  RH  063%=      5-min Rain = 0
KCH1 050959Z 32003KT 24/16 A2993 RMK A01 T02400163  RH  062%=      5-min Rain = 0
KCH1 051000Z 31003KT 24/16 A2993 RMK A01 T02400163  RH  062%=      5-min Rain = 0
KCH1 051001Z 31003KT 24/16 A2993 RMK A01 T02410164  RH  062%=      5-min Rain = 0
KCH1 051002Z 31003KT 24/16 A2993 RMK A01 T02420163  RH  061%=      5-min Rain = 0
KCH1 051003Z 32003KT 24/17 A2993 RMK A01 T02420171  RH  064%=      5-min Rain = 0
KCH1 051004Z 33002KT 24/18 A2992 RMK A01 T02410175  RH  067%=      5-min Rain = 0
KCH1 051005Z 33002KT 24/17 A2992 RMK A01 T02350172  RH  068%=      5-min Rain = 0
KCH1 051006Z 33002KT 23/17 A2992 RMK A01 T02300171  RH  069%=      5-min Rain = 0
KCH1 051007Z 34002KT 23/17 A2992 RMK A01 T02260172  RH  071%=      5-min Rain = 0
KCH1 051008Z 34002KT 22/17 A2992 RMK A01 T02240173  RH  073%=      5-min Rain = 0
KCH1 051009Z 35002KT 22/17 A2992 RMK A01 T02220174  RH  074%=      5-min Rain = 0
KCH1 051010Z 00002KT 22/17 A2992 RMK A01 T02210173  RH  074%=      5-min Rain = 0
KCH1 051011Z 00001KT 22/17 A2992 RMK A01 T02210171  RH  073%=      5-min Rain = 0
KCH1 051012Z 00002KT 22/17 A2992 RMK A01 T02210171  RH  073%=      5-min Rain = 0
KCH1 051013Z 02001KT 22/17 A2992 RMK A01 T02220172  RH  073%=      5-min Rain = 0
KCH1 051014Z 03002KT 22/17 A2992 RMK A01 T02220173  RH  074%=      5-min Rain = 0
KCH1 051015Z 05002KT 22/18 A2992 RMK A01 T02220175  RH  075%=      5-min Rain = 0
KCH1 051016Z 05003KT 22/17 A2992 RMK A01 T02210173  RH  074%=      5-min Rain = 0
KCH1 051017Z 06003KT 22/17 A2992 RMK A01 T02210172  RH  074%=      5-min Rain = 0
KCH1 051018Z 06003KT 22/17 A2992 RMK A01 T02210172  RH  074%=      5-min Rain = 0
KCH1 051019Z 06003KT 22/17 A2992 RMK A01 T02210171  RH  073%=      5-min Rain = 0
KCH1 051020Z 06003KT 22/17 A2992 RMK A01 T02220172  RH  073%=      5-min Rain = 0
KCH1 051021Z 07003KT 22/17 A2992 RMK A01 T02220171  RH  073%=      5-min Rain = 0
KCH1 051022Z 07002KT 22/17 A2992 RMK A01 T02220168  RH  072%=      5-min Rain = 0
KCH1 051023Z 07002KT 22/17 A2992 RMK A01 T02220168  RH  071%=      5-min Rain = 0
KCH1 051024Z 06002KT 22/17 A2992 RMK A01 T02230169  RH  071%=      5-min Rain = 0
KCH1 051025Z 06003KT 22/17 A2992 RMK A01 T02230169  RH  071%=      5-min Rain = 0
KCH1 051026Z 05003KT 22/17 A2992 RMK A01 T02240169  RH  071%=      5-min Rain = 0
KCH1 051027Z 05003KT 22/17 A2992 RMK A01 T02240169  RH  071%=      5-min Rain = 0
KCH1 051028Z 05003KT 22/17 A2992 RMK A01 T02240168  RH  070%=      5-min Rain = 0
KCH1 051029Z 06003KT 23/17 A2992 RMK A01 T02250168  RH  070%=      5-min Rain = 0
KCH1 051030Z 06003KT 23/17 A2992 RMK A01 T02250169  RH  070%=      5-min Rain = 0
KCH1 051031Z 06003KT 23/17 A2992 RMK A01 T02250169  RH  070%=      5-min Rain = 0
KCH1 051032Z 05002KT 23/17 A2993 RMK A01 T02250168  RH  070%=      5-min Rain = 0
KCH1 051033Z 05002KT 23/17 A2993 RMK A01 T02250167  RH  070%=      5-min Rain = 0
KCH1 051034Z 05002KT 23/17 A2993 RMK A01 T02250167  RH  069%=      5-min Rain = 0
KCH1 051035Z 03002KT 23/17 A2993 RMK A01 T02260167  RH  069%=      5-min Rain = 0
KCH1 051036Z 03002KT 23/17 A2993 RMK A01 T02270168  RH  069%=      5-min Rain = 0
KCH1 051037Z 04002KT 23/17 A2993 RMK A01 T02270168  RH  069%=      5-min Rain = 0
KCH1 051038Z 04001KT 23/17 A2993 RMK A01 T02280168  RH  069%=      5-min Rain = 0
KCH1 051039Z 04001KT 23/17 A2993 RMK A01 T02280169  RH  070%=      5-min Rain = 0
KCH1 051040Z 04001KT 23/17 A2993 RMK A01 T02280169  RH  069%=      5-min Rain = 0
KCH1 051041Z 04001KT 23/17 A2993 RMK A01 T02280168  RH  069%=      5-min Rain = 0
KCH1 051042Z 04001KT 23/17 A2993 RMK A01 T02280168  RH  069%=      5-min Rain = 0
KCH1 051043Z 04001KT 23/17 A2993 RMK A01 T02280169  RH  069%=      5-min Rain = 0
KCH1 051044Z 05001KT 23/17 A2993 RMK A01 T02280169  RH  069%=      5-min Rain = 0
KCH1 051045Z 05000KT 23/17 A2993 RMK A01 T02280169  RH  069%=      5-min Rain = 0
KCH1 051046Z 05001KT 23/17 A2993 RMK A01 T02280169  RH  069%=      5-min Rain = 0
KCH1 051047Z 04001KT 23/17 A2993 RMK A01 T02280169  RH  069%=      5-min Rain = 0
KCH1 051048Z 00000KT 23/17 A2993 RMK A01 T02280171  RH  071%=      5-min Rain = 0
KCH1 051049Z 01001KT 23/17 A2993 RMK A01 T02270172  RH  071%=      5-min Rain = 0
KCH1 051050Z 02001KT 23/17 A2993 RMK A01 T02270170  RH  070%=      5-min Rain = 0
KCH1 051051Z 01001KT 23/17 A2993 RMK A01 T02270170  RH  070%=      5-min Rain = 0
KCH1 051052Z 00001KT 23/17 A2993 RMK A01 T02270169  RH  070%=      5-min Rain = 0
KCH1 051053Z 01001KT 23/17 A2993 RMK A01 T02270169  RH  070%=      5-min Rain = 0
KCH1 051054Z 02001KT 23/17 A2993 RMK A01 T02280169  RH  070%=      5-min Rain = 0
KCH1 051055Z 01001KT 23/17 A2993 RMK A01 T02290170  RH  069%=      5-min Rain = 0
KCH1 051056Z 03001KT 23/17 A2993 RMK A01 T02290170  RH  069%=      5-min Rain = 0
KCH1 051057Z 01002KT 23/17 A2993 RMK A01 T02290172  RH  070%=      5-min Rain = 0
KCH1 051058Z 01002KT 23/17 A2993 RMK A01 T02300173  RH  070%=      5-min Rain = 0
KCH1 051059Z 01003KT 23/17 A2993 RMK A01 T02290174  RH  071%=      5-min Rain = 0
KCH1 051100Z 00003KT 23/17 A2993 RMK A01 T02280173  RH  071%=      5-min Rain = 0
KCH1 051101Z 36004KT 23/17 A2994 RMK A01 T02280173  RH  071%=      5-min Rain = 0
KCH1 051102Z 36004KT 23/17 A2994 RMK A01 T02280173  RH  071%=      5-min Rain = 0
KCH1 051103Z 36006KT 23/17 A2994 RMK A01 T02280170  RH  070%=      5-min Rain = 0
KCH1 051104Z 35007KT 23/17 A2994 RMK A01 T02290169  RH  069%=      5-min Rain = 0
KCH1 051105Z 35008KT 23/17 A2995 RMK A01 T02300168  RH  068%=      5-min Rain = 0
KCH1 051106Z 34009KT 23/17 A2995 RMK A01 T02320168  RH  067%=      5-min Rain = 0
KCH1 051107Z 34010KT 23/17 A2996 RMK A01 T02340168  RH  066%=      5-min Rain = 0
KCH1 051108Z 33012KT 24/17 A2996 RMK A01 T02390167  RH  064%=      5-min Rain = 0
KCH1 051109Z 34011KT 25/17 A2996 RMK A01 T02450166  RH  061%=      5-min Rain = 0
KCH1 051110Z 33011KT 25/17 A2996 RMK A01 T02490165  RH  060%=      5-min Rain = 0
KCH1 051111Z 33008KT 25/17 A2996 RMK A01 T02530165  RH  058%=      5-min Rain = 0
KCH1 051112Z 34006KT 26/16 A2995 RMK A01 T02560164  RH  057%=      5-min Rain = 0
KCH1 051113Z 33006KT 26/16 A2995 RMK A01 T02580163  RH  056%=      5-min Rain = 0
KCH1 051114Z 32004KT 26/16 A2995 RMK A01 T02600164  RH  056%=      5-min Rain = 0
KCH1 051115Z 32004KT 26/16 A2995 RMK A01 T02600163  RH  055%=      5-min Rain = 0
KCH1 051116Z 33005KT 26/16 A2995 RMK A01 T02610163  RH  055%=      5-min Rain = 0
KCH1 051117Z 33006KT 26/16 A2995 RMK A01 T02620163  RH  054%=      5-min Rain = 0
KCH1 051118Z 33007KT 26/16 A2995 RMK A01 T02630163  RH  054%=      5-min Rain = 0
KCH1 051119Z 33008KT 26/16 A2996 RMK A01 T02640163  RH  054%=      5-min Rain = 0
KCH1 051120Z 33007KT 26/16 A2996 RMK A01 T02640163  RH  054%=      5-min Rain = 0
KCH1 051121Z 33008KT 26/16 A2996 RMK A01 T02640163  RH  054%=      5-min Rain = 0
KCH1 051122Z 33005KT 27/16 A2996 RMK A01 T02650163  RH  054%=      5-min Rain = 0
KCH1 051123Z 33006KT 27/16 A2996 RMK A01 T02650163  RH  053%=      5-min Rain = 0
KCH1 051124Z 34005KT 27/16 A2995 RMK A01 T02660163  RH  053%=      5-min Rain = 0
KCH1 051125Z 34004KT 27/16 A2995 RMK A01 T02660163  RH  053%=      5-min Rain = 0
KCH1 051126Z 35004KT 27/16 A2995 RMK A01 T02660163  RH  053%=      5-min Rain = 0
KCH1 051127Z 34005KT 27/16 A2995 RMK A01 T02660163  RH  053%=      5-min Rain = 0
KCH1 051128Z 33006KT 27/16 A2996 RMK A01 T02660164  RH  054%=      5-min Rain = 0
KCH1 051129Z 33006KT 27/16 A2996 RMK A01 T02650164  RH  054%=      5-min Rain = 0
KCH1 051130Z 34006KT 27/16 A2996 RMK A01 T02650164  RH  054%=      5-min Rain = 0
KCH1 051131Z 35007KT 27/16 A2996 RMK A01 T02650164  RH  054%=      5-min Rain = 0
KCH1 051132Z 35006KT 27/16 A2996 RMK A01 T02650164  RH  054%=      5-min Rain = 0
KCH1 051133Z 35003KT 27/17 A2995 RMK A01 T02650165  RH  054%=      5-min Rain = 0
KCH1 051134Z 34004KT 27/17 A2995 RMK A01 T02650165  RH  054%=      5-min Rain = 0
KCH1 051135Z 33006KT 27/17 A2996 RMK A01 T02650165  RH  054%=      5-min Rain = 0
KCH1 051136Z 33007KT 27/17 A2996 RMK A01 T02650166  RH  055%=      5-min Rain = 0
KCH1 051137Z 33007KT 27/17 A2996 RMK A01 T02650167  RH  055%=      5-min Rain = 0
KCH1 051138Z 34005KT 27/17 A2996 RMK A01 T02650166  RH  055%=      5-min Rain = 0
KCH1 051139Z 34005KT 27/17 A2996 RMK A01 T02650167  RH  055%=      5-min Rain = 0
KCH1 051140Z 34004KT 27/17 A2996 RMK A01 T02650169  RH  055%=      5-min Rain = 0
KCH1 051141Z 34004KT 27/17 A2996 RMK A01 T02650169  RH  056%=      5-min Rain = 0
KCH1 051142Z 33005KT 26/17 A2996 RMK A01 T02640168  RH  056%=      5-min Rain = 0
KCH1 051143Z 34006KT 26/17 A2996 RMK A01 T02630169  RH  056%=      5-min Rain = 0
KCH1 051144Z 33006KT 26/17 A2996 RMK A01 T02620170  RH  057%=      5-min Rain = 0
KCH1 051145Z 34005KT 26/17 A2996 RMK A01 T02620172  RH  058%=      5-min Rain = 0
KCH1 051146Z 34005KT 26/17 A2996 RMK A01 T02630174  RH  058%=      5-min Rain = 0
KCH1 051147Z 35006KT 26/18 A2996 RMK A01 T02620176  RH  059%=      5-min Rain = 0
KCH1 051148Z 34006KT 26/18 A2996 RMK A01 T02620181  RH  061%=      5-min Rain = 0
KCH1 051149Z 34007KT 26/18 A2996 RMK A01 T02620183  RH  062%=      5-min Rain = 0
KCH1 051150Z 35009KT 26/19 A2996 RMK A01 T02620186  RH  063%=      5-min Rain = 0
KCH1 051151Z 34009KT 26/19 A2996 RMK A01 T02620187  RH  063%=      5-min Rain = 0
KCH1 051152Z 35005KT 26/19 A2996 RMK A01 T02630188  RH  064%=      5-min Rain = 0
KCH1 051153Z 34005KT 26/19 A2996 RMK A01 T02630188  RH  064%=      5-min Rain = 0
KCH1 051154Z 35006KT 26/19 A2996 RMK A01 T02630189  RH  064%=      5-min Rain = 0
KCH1 051155Z 35006KT 26/19 A2996 RMK A01 T02630189  RH  064%=      5-min Rain = 0
KCH1 051156Z 35007KT 26/19 A2996 RMK A01 T02620189  RH  064%=      5-min Rain = 0
KCH1 051157Z 35007KT 26/19 A2996 RMK A01 T02620190  RH  065%=      5-min Rain = 0
KCH1 051158Z 35005KT 26/19 A2996 RMK A01 T02620190  RH  065%=      5-min Rain = 0
KCH1 051159Z 35006KT 26/19 A2996 RMK A01 T02610191  RH  065%=      5-min Rain = 0
KCH1 051200Z 00007KT 26/19 A2996 RMK A01 T02610192  RH  066%=      5-min Rain = 0
KCH1 051201Z 36007KT 26/19 A2996 RMK A01 T02610192  RH  066%=      5-min Rain = 0
KCH1 051202Z 36008KT 26/19 A2996 RMK A01 T02600193  RH  066%=      5-min Rain = 0
KCH1 051203Z 00008KT 26/19 A2996 RMK A01 T02600194  RH  067%=      5-min Rain = 0
KCH1 051204Z 00006KT 26/20 A2996 RMK A01 T02600195  RH  067%=      5-min Rain = 0
KCH1 051205Z 00008KT 26/20 A2996 RMK A01 T02600196  RH  068%=      5-min Rain = 0
KCH1 051206Z 01006KT 26/20 A2996 RMK A01 T02600197  RH  068%=      5-min Rain = 0
KCH1 051207Z 36007KT 26/20 A2996 RMK A01 T02590197  RH  069%=      5-min Rain = 0
KCH1 051208Z 36008KT 26/20 A2996 RMK A01 T02590198  RH  069%=      5-min Rain = 0
KCH1 051209Z 01007KT 26/20 A2996 RMK A01 T02580198  RH  069%=      5-min Rain = 0
KCH1 051210Z 01007KT 26/20 A2996 RMK A01 T02580198  RH  070%=      5-min Rain = 0
KCH1 051211Z 02007KT 26/20 A2996 RMK A01 T02570199  RH  070%=      5-min Rain = 0
KCH1 051212Z 36010KT 26/20 A2996 RMK A01 T02570199  RH  070%=      5-min Rain = 0
KCH1 051213Z 01010G15KT 26/20 A2996 RMK A01 T02570200  RH  071%=      5-min Rain = 0
KCH1 051214Z 01008KT 26/20 A2996 RMK A01 T02570200  RH  071%=      5-min Rain = 0
KCH1 051215Z 01007KT 26/20 A2996 RMK A01 T02570200  RH  071%=      5-min Rain = 0
KCH1 051216Z 02005KT 26/20 A2996 RMK A01 T02570200  RH  071%=      5-min Rain = 0
KCH1 051217Z 01006KT 26/20 A2996 RMK A01 T02570200  RH  071%=      5-min Rain = 0
KCH1 051218Z 36006KT 26/20 A2996 RMK A01 T02570201  RH  071%=      5-min Rain = 0
KCH1 051219Z 36006KT 26/20 A2996 RMK A01 T02570201  RH  071%=      5-min Rain = 0
KCH1 051220Z 01006KT 26/20 A2996 RMK A01 T02570201  RH  071%=      5-min Rain = 0
KCH1 051221Z 36006KT 26/20 A2996 RMK A01 T02570202  RH  071%=      5-min Rain = 0
KCH1 051222Z 35004KT 26/20 A2996 RMK A01 T02570202  RH  071%=      5-min Rain = 0
KCH1 051223Z 35006KT 26/20 A2996 RMK A01 T02570202  RH  072%=      5-min Rain = 0
KCH1 051224Z 35006KT 26/20 A2996 RMK A01 T02570202  RH  072%=      5-min Rain = 0
KCH1 051225Z 35006KT 26/20 A2996 RMK A01 T02570202  RH  072%=      5-min Rain = 0
KCH1 051226Z 35005KT 26/20 A2996 RMK A01 T02570202  RH  072%=      5-min Rain = 0
KCH1 051227Z 34004KT 26/20 A2996 RMK A01 T02570203  RH  072%=      5-min Rain = 0
KCH1 051228Z 35004KT 26/20 A2996 RMK A01 T02570202  RH  072%=      5-min Rain = 0
KCH1 051229Z 35003KT 26/20 A2996 RMK A01 T02580203  RH  072%=      5-min Rain = 0
KCH1 051230Z 36003KT 26/20 A2996 RMK A01 T02580203  RH  072%=      5-min Rain = 0
KCH1 051231Z 01005KT 26/20 A2996 RMK A01 T02580204  RH  072%=      5-min Rain = 0
KCH1 051232Z 02004KT 26/20 A2996 RMK A01 T02580204  RH  072%=      5-min Rain = 0
KCH1 051233Z 01003KT 26/20 A2996 RMK A01 T02580204  RH  072%=      5-min Rain = 0
KCH1 051234Z 03004KT 26/20 A2996 RMK A01 T02580204  RH  072%=      5-min Rain = 0
KCH1 051235Z 02005KT 26/20 A2996 RMK A01 T02590204  RH  072%=      5-min Rain = 0
KCH1 051236Z 03004KT 26/20 A2996 RMK A01 T02590204  RH  072%=      5-min Rain = 0
KCH1 051237Z 03005KT 26/21 A2996 RMK A01 T02600205  RH  072%=      5-min Rain = 0
KCH1 051238Z 02004KT 26/20 A2996 RMK A01 T02600204  RH  071%=      5-min Rain = 0
KCH1 051239Z 03004KT 26/21 A2996 RMK A01 T02600205  RH  071%=      5-min Rain = 0
KCH1 051240Z 02005KT 26/21 A2996 RMK A01 T02600205  RH  072%=      5-min Rain = 0
KCH1 051241Z 02004KT 26/21 A2996 RMK A01 T02600205  RH  071%=      5-min Rain = 0
KCH1 051242Z 03005KT 26/21 A2996 RMK A01 T02600205  RH  071%=      5-min Rain = 0
KCH1 051243Z 03004KT 26/21 A2996 RMK A01 T02610205  RH  071%=      5-min Rain = 0
KCH1 051244Z 02004KT 26/21 A2996 RMK A01 T02610205  RH  071%=      5-min Rain = 0
KCH1 051245Z 01003KT 26/21 A2996 RMK A01 T02610205  RH  071%=      5-min Rain = 0
KCH1 051246Z 00003KT 26/21 A2996 RMK A01 T02610206  RH  071%=      5-min Rain = 0
KCH1 051247Z 36005KT 26/21 A2996 RMK A01 T02620206  RH  071%=      5-min Rain = 0
KCH1 051248Z 02006KT 26/21 A2996 RMK A01 T02620206  RH  071%=      5-min Rain = 0
KCH1 051249Z 01007KT 26/21 A2996 RMK A01 T02620206  RH  071%=      5-min Rain = 0
KCH1 051250Z 00005KT 26/21 A2996 RMK A01 T02620206  RH  071%=      5-min Rain = 0
KCH1 051251Z 35005KT 26/21 A2996 RMK A01 T02620206  RH  071%=      5-min Rain = 0
KCH1 051252Z 35007KT 26/21 A2996 RMK A01 T02620206  RH  072%=      5-min Rain = 0
KCH1 051253Z 35007KT 26/21 A2996 RMK A01 T02620206  RH  071%=      5-min Rain = 0
KCH1 051254Z 36009KT 26/21 A2996 RMK A01 T02620206  RH  071%=      5-min Rain = 0
KCH1 051255Z 00008KT 26/21 A2996 RMK A01 T02620206  RH  071%=      5-min Rain = 0
KCH1 051256Z 00008KT 26/21 A2996 RMK A01 T02620206  RH  071%=      5-min Rain = 0
KCH1 051257Z 00007KT 26/21 A2996 RMK A01 T02620206  RH  071%=      5-min Rain = 0
KCH1 051258Z 36007KT 26/21 A2996 RMK A01 T02630207  RH  071%=      5-min Rain = 0
KCH1 051259Z 36006KT 26/21 A2996 RMK A01 T02640207  RH  071%=      5-min Rain = 0
KCH1 051300Z 00009KT 26/21 A2996 RMK A01 T02640207  RH  071%=      5-min Rain = 0
KCH1 051301Z 01009KT 26/21 A2997 RMK A01 T02640207  RH  071%=      5-min Rain = 0
KCH1 051302Z 02008KT 26/21 A2997 RMK A01 T02640207  RH  071%=      5-min Rain = 0
KCH1 051303Z 36007KT 26/21 A2997 RMK A01 T02640207  RH  071%=      5-min Rain = 0
KCH1 051304Z 01005KT 27/21 A2997 RMK A01 T02650208  RH  071%=      5-min Rain = 0
KCH1 051305Z 02007KT 27/21 A2997 RMK A01 T02660208  RH  071%=      5-min Rain = 0
KCH1 051306Z 01005KT 27/21 A2996 RMK A01 T02660208  RH  070%=      5-min Rain = 0
KCH1 051307Z 01003KT 27/21 A2996 RMK A01 T02660209  RH  071%=      5-min Rain = 0
KCH1 051308Z 03006KT 27/21 A2996 RMK A01 T02670209  RH  070%=      5-min Rain = 0
KCH1 051309Z 02007KT 27/21 A2996 RMK A01 T02680208  RH  070%=      5-min Rain = 0
KCH1 051310Z 01007KT 27/21 A2996 RMK A01 T02680208  RH  070%=      5-min Rain = 0
KCH1 051311Z 03007KT 27/21 A2996 RMK A01 T02690208  RH  069%=      5-min Rain = 0
KCH1 051312Z 02008KT 27/21 A2996 RMK A01 T02690208  RH  069%=      5-min Rain = 0
KCH1 051313Z 03008KT 27/21 A2996 RMK A01 T02680207  RH  069%=      5-min Rain = 0
KCH1 051314Z 02009KT 27/21 A2996 RMK A01 T02690208  RH  069%=      5-min Rain = 0
KCH1 051315Z 01006KT 27/21 A2996 RMK A01 T02690208  RH  069%=      5-min Rain = 0
KCH1 051316Z 02006KT 27/21 A2996 RMK A01 T02700208  RH  069%=      5-min Rain = 0
KCH1 051317Z 02008KT 27/21 A2996 RMK A01 T02700208  RH  069%=      5-min Rain = 0
KCH1 051318Z 02008G13KT 27/21 A2996 RMK A01 T02690208  RH  069%=      5-min Rain = 0
KCH1 051319Z 01009KT 27/21 A2996 RMK A01 T02690208  RH  069%=      5-min Rain = 0
KCH1 051320Z 02007KT 27/21 A2996 RMK A01 T02690208  RH  069%=      5-min Rain = 0
KCH1 051321Z 03006KT 27/21 A2996 RMK A01 T02690208  RH  070%=      5-min Rain = 0
KCH1 051322Z 03006KT 27/21 A2996 RMK A01 T02700209  RH  069%=      5-min Rain = 0
KCH1 051323Z 03004KT 27/21 A2996 RMK A01 T02710209  RH  069%=      5-min Rain = 0
KCH1 051324Z 01006G11KT 27/21 A2996 RMK A01 T02730210  RH  069%=      5-min Rain = 0
KCH1 051325Z 01009KT 27/21 A2996 RMK A01 T02730208  RH  068%=      5-min Rain = 0
KCH1 051326Z 01009KT 27/21 A2996 RMK A01 T02730209  RH  068%=      5-min Rain = 0
KCH1 051327Z 03006KT 27/21 A2996 RMK A01 T02720208  RH  068%=      5-min Rain = 0
KCH1 051328Z 03006KT 27/21 A2996 RMK A01 T02710209  RH  069%=      5-min Rain = 0
KCH1 051329Z 02004KT 27/21 A2996 RMK A01 T02720210  RH  069%=      5-min Rain = 0
KCH1 051330Z 03006KT 27/21 A2997 RMK A01 T02740210  RH  068%=      5-min Rain = 0
KCH1 051331Z 03004KT 28/21 A2997 RMK A01 T02750210  RH  068%=      5-min Rain = 0
KCH1 051332Z 02003KT 28/21 A2996 RMK A01 T02760210  RH  067%=      5-min Rain = 0
KCH1 051333Z 05005KT 28/21 A2996 RMK A01 T02770211  RH  067%=      5-min Rain = 0
KCH1 051334Z 03005KT 28/21 A2996 RMK A01 T02790212  RH  067%=      5-min Rain = 0
KCH1 051335Z 03007KT 28/21 A2997 RMK A01 T02800211  RH  066%=      5-min Rain = 0
KCH1 051336Z 03008KT 28/21 A2997 RMK A01 T02800209  RH  065%=      5-min Rain = 0
KCH1 051337Z 04008KT 28/21 A2996 RMK A01 T02780209  RH  066%=      5-min Rain = 0
KCH1 051338Z 04008KT 28/21 A2997 RMK A01 T02780209  RH  066%=      5-min Rain = 0
KCH1 051339Z 03008KT 28/21 A2997 RMK A01 T02780210  RH  067%=      5-min Rain = 0
KCH1 051340Z 03009KT 28/21 A2997 RMK A01 T02780209  RH  066%=      5-min Rain = 0
KCH1 051341Z 03006KT 28/21 A2997 RMK A01 T02780209  RH  066%=      5-min Rain = 0
KCH1 051342Z 04004KT 28/21 A2997 RMK A01 T02790211  RH  066%=      5-min Rain = 0
KCH1 051343Z 03005KT 28/21 A2997 RMK A01 T02820213  RH  066%=      5-min Rain = 0
KCH1 051344Z 03004KT 28/21 A2997 RMK A01 T02830212  RH  065%=      5-min Rain = 0
KCH1 051345Z 03008KT 29/21 A2997 RMK A01 T02850212  RH  065%=      5-min Rain = 0
KCH1 051346Z 03008KT 29/21 A2997 RMK A01 T02850211  RH  064%=      5-min Rain = 0
KCH1 051347Z 03009KT 29/21 A2997 RMK A01 T02860211  RH  064%=      5-min Rain = 0
KCH1 051348Z 03008KT 29/21 A2997 RMK A01 T02850211  RH  064%=      5-min Rain = 0
KCH1 051349Z 01006KT 28/21 A2997 RMK A01 T02840212  RH  065%=      5-min Rain = 0
KCH1 051350Z 02006G11KT 29/21 A2997 RMK A01 T02860212  RH  064%=      5-min Rain = 0
KCH1 051351Z 02008KT 29/21 A2997 RMK A01 T02870211  RH  063%=      5-min Rain = 0
KCH1 051352Z 02009KT 29/21 A2997 RMK A01 T02860212  RH  064%=      5-min Rain = 0
KCH1 051353Z 03009KT 29/21 A2997 RMK A01 T02870212  RH  064%=      5-min Rain = 0
KCH1 051354Z 04007KT 29/21 A2997 RMK A01 T02870211  RH  064%=      5-min Rain = 0
KCH1 051355Z 03005KT 29/21 A2997 RMK A01 T02870211  RH  064%=      5-min Rain = 0
KCH1 051356Z 02008KT 29/21 A2997 RMK A01 T02870211  RH  064%=      5-min Rain = 0
KCH1 051357Z 03007KT 28/21 A2997 RMK A01 T02840210  RH  064%=      5-min Rain = 0
KCH1 051358Z 01007KT 28/21 A2997 RMK A01 T02820210  RH  065%=      5-min Rain = 0
KCH1 051359Z 01006KT 28/21 A2997 RMK A01 T02800210  RH  066%=      5-min Rain = 0
KCH1 051400Z 01007KT 28/21 A2997 RMK A01 T02790210  RH  066%=      5-min Rain = 0
KCH1 051401Z 01008KT 28/21 A2997 RMK A01 T02780210  RH  066%=      5-min Rain = 0
KCH1 051402Z 02006KT 28/21 A2997 RMK A01 T02770210  RH  067%=      5-min Rain = 0
KCH1 051403Z 03004KT 28/21 A2998 RMK A01 T02770211  RH  067%=      5-min Rain = 0
KCH1 051404Z 04007KT 28/21 A2998 RMK A01 T02780211  RH  067%=      5-min Rain = 0
KCH1 051405Z 05008KT 28/21 A2998 RMK A01 T02780210  RH  066%=      5-min Rain = 0
KCH1 051406Z 05009KT 28/21 A2998 RMK A01 T02770210  RH  067%=      5-min Rain = 0
KCH1 051407Z 04008KT 28/21 A2998 RMK A01 T02760210  RH  067%=      5-min Rain = 0
KCH1 051408Z 04009KT 28/21 A2998 RMK A01 T02760210  RH  067%=      5-min Rain = 0
KCH1 051409Z 05009KT 28/21 A2998 RMK A01 T02760210  RH  067%=      5-min Rain = 0
KCH1 051410Z 06009KT 28/21 A2998 RMK A01 T02750210  RH  068%=      5-min Rain = 0
KCH1 051411Z 05009KT 28/21 A2998 RMK A01 T02750210  RH  068%=      5-min Rain = 0
KCH1 051412Z 04008KT 27/21 A2998 RMK A01 T02740210  RH  068%=      5-min Rain = 0
KCH1 051413Z 05008KT 27/21 A2998 RMK A01 T02730210  RH  068%=      5-min Rain = 0
KCH1 051414Z 05006KT 27/21 A2998 RMK A01 T02730210  RH  068%=      5-min Rain = 0
KCH1 051415Z 04005KT 27/21 A2998 RMK A01 T02720210  RH  069%=      5-min Rain = 0
KCH1 051416Z 03004KT 27/21 A2998 RMK A01 T02720211  RH  069%=      5-min Rain = 0
KCH1 051417Z 04004KT 27/21 A2998 RMK A01 T02730212  RH  069%=      5-min Rain = 0
KCH1 051418Z 04005KT 27/21 A2998 RMK A01 T02740212  RH  069%=      5-min Rain = 0
KCH1 051419Z 05006KT 27/21 A2998 RMK A01 T02740211  RH  068%=      5-min Rain = 0
KCH1 051420Z 05005KT 27/21 A2998 RMK A01 T02730211  RH  069%=      5-min Rain = 0
KCH1 051421Z 04005KT 27/21 A2998 RMK A01 T02730211  RH  069%=      5-min Rain = 0
KCH1 051422Z 06007KT 27/21 A2998 RMK A01 T02730211  RH  069%=      5-min Rain = 0
KCH1 051423Z 06006KT 27/21 A2997 RMK A01 T02730211  RH  069%=      5-min Rain = 0
KCH1 051424Z 07007KT 27/21 A2997 RMK A01 T02710210  RH  069%=      5-min Rain = 0
KCH1 051425Z 06008KT 27/21 A2997 RMK A01 T02710211  RH  070%=      5-min Rain = 0
KCH1 051426Z 06007KT 27/21 A2998 RMK A01 T02710210  RH  069%=      5-min Rain = 0
KCH1 051427Z 06007KT 27/21 A2998 RMK A01 T02710211  RH  070%=      5-min Rain = 0
KCH1 051428Z 06007KT 27/21 A2998 RMK A01 T02710211  RH  070%=      5-min Rain = 0
KCH1 051429Z 05007KT 27/21 A2997 RMK A01 T02710210  RH  069%=      5-min Rain = 0
KCH1 051430Z 06005KT 27/21 A2997 RMK A01 T02700210  RH  070%=      5-min Rain = 0
KCH1 051431Z 06007KT 27/21 A2997 RMK A01 T02700211  RH  070%=      5-min Rain = 0
KCH1 051432Z 07006KT 27/21 A2997 RMK A01 T02700211  RH  070%=      5-min Rain = 0
KCH1 051433Z 05006KT 27/21 A2997 RMK A01 T02700210  RH  070%=      5-min Rain = 0
KCH1 051434Z 05004KT 27/21 A2997 RMK A01 T02700211  RH  070%=      5-min Rain = 0
KCH1 051435Z 06006KT 27/21 A2997 RMK A01 T02690211  RH  071%=      5-min Rain = 0
KCH1 051436Z 05006KT 27/21 A2997 RMK A01 T02690211  RH  070%=      5-min Rain = 0
KCH1 051437Z 05006KT 27/21 A2997 RMK A01 T02690211  RH  070%=      5-min Rain = 0
KCH1 051438Z 06007KT 27/21 A2997 RMK A01 T02690211  RH  070%=      5-min Rain = 0
KCH1 051439Z 06006KT 27/21 A2997 RMK A01 T02690211  RH  070%=      5-min Rain = 0
KCH1 051440Z 05005KT 27/21 A2997 RMK A01 T02700211  RH  070%=      5-min Rain = 0
KCH1 051441Z 05005KT 27/21 A2997 RMK A01 T02700212  RH  071%=      5-min Rain = 0
KCH1 051442Z 05006KT 27/21 A2997 RMK A01 T02690211  RH  070%=      5-min Rain = 0
KCH1 051443Z 08005KT 27/21 A2997 RMK A01 T02690211  RH  071%=      5-min Rain = 0
KCH1 051444Z 08005KT 27/21 A2997 RMK A01 T02700212  RH  070%=      5-min Rain = 0
KCH1 051445Z 07006KT 27/21 A2997 RMK A01 T02700212  RH  071%=      5-min Rain = 0
KCH1 051446Z 06007KT 27/21 A2997 RMK A01 T02700211  RH  070%=      5-min Rain = 0
KCH1 051447Z 07008KT 27/21 A2997 RMK A01 T02700211  RH  070%=      5-min Rain = 0
KCH1 051448Z 07008KT 27/21 A2997 RMK A01 T02700211  RH  070%=      5-min Rain = 0
KCH1 051449Z 07007KT 27/21 A2997 RMK A01 T02700211  RH  070%=      5-min Rain = 0
KCH1 051450Z 07006KT 27/21 A2997 RMK A01 T02690211  RH  070%=      5-min Rain = 0
KCH1 051451Z 07007KT 27/21 A2997 RMK A01 T02690211  RH  071%=      5-min Rain = 0
KCH1 051452Z 07006KT 27/21 A2997 RMK A01 T02690211  RH  070%=      5-min Rain = 0
KCH1 051453Z 08006KT 27/21 A2997 RMK A01 T02690211  RH  071%=      5-min Rain = 0
KCH1 051454Z 07005KT 27/21 A2996 RMK A01 T02690212  RH  071%=      5-min Rain = 0
KCH1 051455Z 09006KT 27/21 A2996 RMK A01 T02690212  RH  071%=      5-min Rain = 0
KCH1 051456Z 09006KT 27/21 A2996 RMK A01 T02690212  RH  071%=      5-min Rain = 0
KCH1 051457Z 08005KT 27/21 A2996 RMK A01 T02690212  RH  071%=      5-min Rain = 0
KCH1 051458Z 08004KT 27/21 A2996 RMK A01 T02690212  RH  071%=      5-min Rain = 0
KCH1 051459Z 08005KT 27/21 A2996 RMK A01 T02690212  RH  071%=      5-min Rain = 0
KCH1 051500Z 10004KT 27/21 A2996 RMK A01 T02700213  RH  071%=      5-min Rain = 0
KCH1 051501Z 09005KT 27/21 A2996 RMK A01 T02700213  RH  071%=      5-min Rain = 0
KCH1 051502Z 10005KT 27/21 A2996 RMK A01 T02700213  RH  071%=      5-min Rain = 0
KCH1 051503Z 11005KT 27/21 A2996 RMK A01 T02700213  RH  071%=      5-min Rain = 0
KCH1 051504Z 10004KT 27/21 A2996 RMK A01 T02700213  RH  071%=      5-min Rain = 0
KCH1 051505Z 09007KT 27/21 A2996 RMK A01 T02700213  RH  071%=      5-min Rain = 0
KCH1 051506Z 09006KT 27/21 A2996 RMK A01 T02700213  RH  071%=      5-min Rain = 0
KCH1 051507Z 10006KT 27/21 A2996 RMK A01 T02700213  RH  071%=      5-min Rain = 0
KCH1 051508Z 08006KT 27/21 A2996 RMK A01 T02690213  RH  071%=      5-min Rain = 0
KCH1 051509Z 08006KT 27/21 A2996 RMK A01 T02690212  RH  071%=      5-min Rain = 0
KCH1 051510Z 08007KT 27/21 A2996 RMK A01 T02700212  RH  071%=      5-min Rain = 0
KCH1 051511Z 08007KT 27/21 A2996 RMK A01 T02690212  RH  071%=      5-min Rain = 0
KCH1 051512Z 09006KT 27/21 A2996 RMK A01 T02690212  RH  071%=      5-min Rain = 0
KCH1 051513Z 08006KT 27/21 A2996 RMK A01 T02700213  RH  071%=      5-min Rain = 0
KCH1 051514Z 08006KT 27/21 A2996 RMK A01 T02690212  RH  071%=      5-min Rain = 0
KCH1 051515Z 08005KT 27/21 A2996 RMK A01 T02690212  RH  071%=      5-min Rain = 0
KCH1 051516Z 08005KT 27/21 A2996 RMK A01 T02690212  RH  071%=      5-min Rain = 0
KCH1 051517Z 08005KT 27/21 A2996 RMK A01 T02690212  RH  071%=      5-min Rain = 0
KCH1 051518Z 07005KT 27/21 A2996 RMK A01 T02700213  RH  071%=      5-min Rain = 0
KCH1 051519Z 08005KT 27/21 A2997 RMK A01 T02700213  RH  071%=      5-min Rain = 0
KCH1 051520Z 09005KT 27/21 A2997 RMK A01 T02710214  RH  071%=      5-min Rain = 0
KCH1 051521Z 08006KT 27/21 A2997 RMK A01 T02710214  RH  071%=      5-min Rain = 0
KCH1 051522Z 08008KT 27/21 A2997 RMK A01 T02720213  RH  070%=      5-min Rain = 0
KCH1 051523Z 09007KT 27/21 A2997 RMK A01 T02720213  RH  070%=      5-min Rain = 0
KCH1 051524Z 07004KT 27/21 A2997 RMK A01 T02720214  RH  070%=      5-min Rain = 0
KCH1 051525Z 07007KT 27/21 A2997 RMK A01 T02720214  RH  071%=      5-min Rain = 0
KCH1 051526Z 07007KT 27/21 A2997 RMK A01 T02730213  RH  070%=      5-min Rain = 0
KCH1 051527Z 06007KT 27/21 A2997 RMK A01 T02730213  RH  070%=      5-min Rain = 0
KCH1 051528Z 06006KT 27/21 A2997 RMK A01 T02730214  RH  070%=      5-min Rain = 0
KCH1 051529Z 06006KT 27/21 A2997 RMK A01 T02730214  RH  070%=      5-min Rain = 0
KCH1 051530Z 04006KT 27/21 A2997 RMK A01 T02740214  RH  070%=      5-min Rain = 0
KCH1 051531Z 04005KT 27/21 A2997 RMK A01 T02740214  RH  070%=      5-min Rain = 0
KCH1 051532Z 05005KT 27/22 A2997 RMK A01 T02740215  RH  070%=      5-min Rain = 0
KCH1 051533Z 04006KT 28/22 A2997 RMK A01 T02760216  RH  070%=      5-min Rain = 0
KCH1 051534Z 05007KT 28/22 A2997 RMK A01 T02780215  RH  069%=      5-min Rain = 0
KCH1 051535Z 05007KT 28/22 A2997 RMK A01 T02770215  RH  069%=      5-min Rain = 0
KCH1 051536Z 05007KT 28/22 A2997 RMK A01 T02770215  RH  069%=      5-min Rain = 0
KCH1 051537Z 05006KT 28/22 A2997 RMK A01 T02760215  RH  069%=      5-min Rain = 0
KCH1 051538Z 06005KT 28/22 A2997 RMK A01 T02760215  RH  070%=      5-min Rain = 0
KCH1 051539Z 04005KT 28/22 A2997 RMK A01 T02770216  RH  069%=      5-min Rain = 0
KCH1 051540Z 04006KT 28/22 A2997 RMK A01 T02790217  RH  069%=      5-min Rain = 0
KCH1 051541Z 04006KT 28/22 A2998 RMK A01 T02800216  RH  068%=      5-min Rain = 0
KCH1 051542Z 05003KT 28/22 A2998 RMK A01 T02810217  RH  068%=      5-min Rain = 0
KCH1 051543Z 06008KT 28/22 A2998 RMK A01 T02820217  RH  068%=      5-min Rain = 0
KCH1 051544Z 05007KT 28/22 A2998 RMK A01 T02820215  RH  067%=      5-min Rain = 0
KCH1 051545Z 06006KT 28/22 A2998 RMK A01 T02810216  RH  068%=      5-min Rain = 0
KCH1 051546Z 05004KT 28/22 A2998 RMK A01 T02800217  RH  068%=      5-min Rain = 0
KCH1 051547Z 07006KT 28/22 A2998 RMK A01 T02820216  RH  068%=      5-min Rain = 0
KCH1 051548Z 07009KT 28/22 A2998 RMK A01 T02820216  RH  067%=      5-min Rain = 0
KCH1 051549Z 06007KT 28/22 A2998 RMK A01 T02830215  RH  067%=      5-min Rain = 0
KCH1 051550Z 05004KT 28/22 A2998 RMK A01 T02810215  RH  067%=      5-min Rain = 0
KCH1 051551Z 06007KT 28/22 A2998 RMK A01 T02800215  RH  068%=      5-min Rain = 0
KCH1 051552Z 06007KT 28/21 A2998 RMK A01 T02800214  RH  067%=      5-min Rain = 0
KCH1 051553Z 05006KT 28/22 A2998 RMK A01 T02800215  RH  068%=      5-min Rain = 0
KCH1 051554Z 07005KT 28/22 A2998 RMK A01 T02800215  RH  068%=      5-min Rain = 0
KCH1 051555Z 08005KT 28/22 A2998 RMK A01 T02810215  RH  068%=      5-min Rain = 0
KCH1 051556Z 07006KT 28/22 A2998 RMK A01 T02810215  RH  067%=      5-min Rain = 0
KCH1 051557Z 06007KT 28/22 A2998 RMK A01 T02830216  RH  067%=      5-min Rain = 0
KCH1 051558Z 05008KT 28/22 A2998 RMK A01 T02830216  RH  067%=      5-min Rain = 0
KCH1 051559Z 06009KT 28/22 A2998 RMK A01 T02840215  RH  066%=      5-min Rain = 0
KCH1 051600Z 07009KT 28/22 A2998 RMK A01 T02840216  RH  066%=      5-min Rain = 0
KCH1 051601Z 05009KT 28/22 A2998 RMK A01 T02840215  RH  066%=      5-min Rain = 0
KCH1 051602Z 06007KT 28/22 A2998 RMK A01 T02830215  RH  067%=      5-min Rain = 0
KCH1 051603Z 06007KT 28/22 A2997 RMK A01 T02820215  RH  067%=      5-min Rain = 0
KCH1 051604Z 05008KT 28/22 A2997 RMK A01 T02830216  RH  067%=      5-min Rain = 0
KCH1 051605Z 04007KT 29/22 A2997 RMK A01 T02850216  RH  066%=      5-min Rain = 0
KCH1 051606Z 03006KT 29/22 A2997 RMK A01 T02860216  RH  066%=      5-min Rain = 0
KCH1 051607Z 04005KT 29/22 A2997 RMK A01 T02850216  RH  066%=      5-min Rain = 0
KCH1 051608Z 04006KT 28/22 A2997 RMK A01 T02840216  RH  067%=      5-min Rain = 0
KCH1 051609Z 05005KT 29/22 A2997 RMK A01 T02850219  RH  067%=      5-min Rain = 0
KCH1 051610Z 05005KT 29/22 A2997 RMK A01 T02900219  RH  066%=      5-min Rain = 0
KCH1 051611Z 07006KT 29/22 A2997 RMK A01 T02910218  RH  064%=      5-min Rain = 0
KCH1 051612Z 06009KT 29/22 A2997 RMK A01 T02920217  RH  064%=      5-min Rain = 0
KCH1 051613Z 06009KT 29/22 A2997 RMK A01 T02910215  RH  064%=      5-min Rain = 0
KCH1 051614Z 06007KT 29/22 A2997 RMK A01 T02880216  RH  065%=      5-min Rain = 0
KCH1 051615Z 06008KT 29/22 A2997 RMK A01 T02880217  RH  065%=      5-min Rain = 0
KCH1 051616Z 06009KT 29/22 A2997 RMK A01 T02880216  RH  065%=      5-min Rain = 0
KCH1 051617Z 06010KT 29/22 A2997 RMK A01 T02860215  RH  066%=      5-min Rain = 0
KCH1 051618Z 06008KT 28/21 A2997 RMK A01 T02840214  RH  066%=      5-min Rain = 0
KCH1 051619Z 05007KT 28/22 A2997 RMK A01 T02830216  RH  067%=      5-min Rain = 0
KCH1 051620Z 06007KT 28/22 A2997 RMK A01 T02830217  RH  067%=      5-min Rain = 0
KCH1 051621Z 07007KT 28/22 A2998 RMK A01 T02840215  RH  066%=      5-min Rain = 0
KCH1 051622Z 04007KT 28/22 A2998 RMK A01 T02840216  RH  067%=      5-min Rain = 0
KCH1 051623Z 05009KT 28/22 A2998 RMK A01 T02840215  RH  066%=      5-min Rain = 0
KCH1 051624Z 05009KT 28/21 A2998 RMK A01 T02840214  RH  066%=      5-min Rain = 0
KCH1 051625Z 05008KT 28/21 A2998 RMK A01 T02830214  RH  066%=      5-min Rain = 0
KCH1 051626Z 06007KT 28/21 A2998 RMK A01 T02820214  RH  067%=      5-min Rain = 0
KCH1 051627Z 07007KT 28/21 A2998 RMK A01 T02810214  RH  067%=      5-min Rain = 0
KCH1 051628Z 07008KT 28/22 A2998 RMK A01 T02810215  RH  067%=      5-min Rain = 0
KCH1 051629Z 07010KT 28/22 A2998 RMK A01 T02820216  RH  067%=      5-min Rain = 0
KCH1 051630Z 06009KT 28/22 A2998 RMK A01 T02830216  RH  067%=      5-min Rain = 0
KCH1 051631Z 06008KT 28/22 A2998 RMK A01 T02830216  RH  067%=      5-min Rain = 0
KCH1 051632Z 06007KT 28/22 A2998 RMK A01 T02830216  RH  067%=      5-min Rain = 0
KCH1 051633Z 06006KT 28/22 A2998 RMK A01 T02820217  RH  068%=      5-min Rain = 0
KCH1 051634Z 06006KT 28/22 A2998 RMK A01 T02820217  RH  068%=      5-min Rain = 0
KCH1 051635Z 05007KT 28/22 A2998 RMK A01 T02840218  RH  067%=      5-min Rain = 0
KCH1 051636Z 06008KT 28/22 A2997 RMK A01 T02840217  RH  067%=      5-min Rain = 0
KCH1 051637Z 06007KT 28/22 A2997 RMK A01 T02840217  RH  067%=      5-min Rain = 0
KCH1 051638Z 07008KT 28/22 A2997 RMK A01 T02830217  RH  067%=      5-min Rain = 0
KCH1 051639Z 07009KT 28/22 A2997 RMK A01 T02830218  RH  068%=      5-min Rain = 0
KCH1 051640Z 06008KT 28/22 A2997 RMK A01 T02820218  RH  068%=      5-min Rain = 0
KCH1 051641Z 06007KT 28/22 A2997 RMK A01 T02820218  RH  069%=      5-min Rain = 0
KCH1 051642Z 07005KT 28/22 A2997 RMK A01 T02810219  RH  069%=      5-min Rain = 0
KCH1 051643Z 06005KT 28/22 A2997 RMK A01 T02810219  RH  069%=      5-min Rain = 0
KCH1 051644Z 06006KT 28/22 A2997 RMK A01 T02810218  RH  069%=      5-min Rain = 0
KCH1 051645Z 06007KT 28/22 A2997 RMK A01 T02820218  RH  069%=      5-min Rain = 0
KCH1 051646Z 07007KT 28/22 A2997 RMK A01 T02820219  RH  069%=      5-min Rain = 0
KCH1 051647Z 06008KT 28/22 A2997 RMK A01 T02820220  RH  069%=      5-min Rain = 0
KCH1 051648Z 06007KT 28/22 A2997 RMK A01 T02820220  RH  069%=      5-min Rain = 0
KCH1 051649Z 05006KT 28/22 A2997 RMK A01 T02830221  RH  069%=      5-min Rain = 0
KCH1 051650Z 05006KT 28/22 A2997 RMK A01 T02830221  RH  069%=      5-min Rain = 0
KCH1 051651Z 04005KT 28/22 A2997 RMK A01 T02820222  RH  070%=      5-min Rain = 0
KCH1 051652Z 03007KT 28/22 A2997 RMK A01 T02830223  RH  070%=      5-min Rain = 0
KCH1 051653Z 05008KT 28/22 A2997 RMK A01 T02840223  RH  070%=      5-min Rain = 0
KCH1 051654Z 04006KT 28/22 A2997 RMK A01 T02840224  RH  070%=      5-min Rain = 0
KCH1 051655Z 02005KT 28/22 A2997 RMK A01 T02840224  RH  070%=      5-min Rain = 0
KCH1 051656Z 04005KT 28/22 A2997 RMK A01 T02840224  RH  070%=      5-min Rain = 0
KCH1 051657Z 03006KT 29/23 A2997 RMK A01 T02850225  RH  070%=      5-min Rain = 0
KCH1 051658Z 04009KT 29/22 A2997 RMK A01 T02850224  RH  070%=      5-min Rain = 0
KCH1 051659Z 04008KT 28/22 A2997 RMK A01 T02840224  RH  070%=      5-min Rain = 0
KCH1 051700Z 05009KT 28/23 A2997 RMK A01 T02830225  RH  071%=      5-min Rain = 0
KCH1 051701Z 06008KT 28/23 A2997 RMK A01 T02820225  RH  071%=      5-min Rain = 0
KCH1 051702Z 06006KT 28/23 A2997 RMK A01 T02820226  RH  071%=      5-min Rain = 0
KCH1 051703Z 05007KT 28/23 A2997 RMK A01 T02820226  RH  072%=      5-min Rain = 0
KCH1 051704Z 05006KT 28/23 A2997 RMK A01 T02820226  RH  072%=      5-min Rain = 0
KCH1 051705Z 06008KT 28/23 A2997 RMK A01 T02820226  RH  072%=      5-min Rain = 0
KCH1 051706Z 05007KT 28/23 A2997 RMK A01 T02810227  RH  073%=      5-min Rain = 0
KCH1 051707Z 06007KT 28/23 A2997 RMK A01 T02790227  RH  073%=      5-min Rain = 0
KCH1 051708Z 06008KT 28/23 A2997 RMK A01 T02800226  RH  073%=      5-min Rain = 0
KCH1 051709Z 06008KT 28/23 A2997 RMK A01 T02790225  RH  073%=      5-min Rain = 0
KCH1 051710Z 07007KT 28/23 A2997 RMK A01 T02790225  RH  072%=      5-min Rain = 0
KCH1 051711Z 06006KT 28/23 A2997 RMK A01 T02790225  RH  073%=      5-min Rain = 0
KCH1 051712Z 05007KT 28/23 A2997 RMK A01 T02790225  RH  072%=      5-min Rain = 0
KCH1 051713Z 05009KT 28/23 A2997 RMK A01 T02790225  RH  072%=      5-min Rain = 0
KCH1 051714Z 05008KT 28/23 A2997 RMK A01 T02790226  RH  073%=      5-min Rain = 0
KCH1 051715Z 05008KT 28/23 A2997 RMK A01 T02780226  RH  073%=      5-min Rain = 0
KCH1 051716Z 05008KT 28/23 A2997 RMK A01 T02780227  RH  074%=      5-min Rain = 0
KCH1 051717Z 06007KT 28/23 A2997 RMK A01 T02780228  RH  074%=      5-min Rain = 0
KCH1 051718Z 05007KT 28/23 A2997 RMK A01 T02780228  RH  074%=      5-min Rain = 0
KCH1 051719Z 05008KT 28/23 A2997 RMK A01 T02780227  RH  074%=      5-min Rain = 0
KCH1 051720Z 06008KT 28/23 A2997 RMK A01 T02780227  RH  074%=      5-min Rain = 0
KCH1 051721Z 06008KT 28/23 A2997 RMK A01 T02790225  RH  073%=      5-min Rain = 0
KCH1 051722Z 05008KT 28/22 A2997 RMK A01 T02790224  RH  072%=      5-min Rain = 0
KCH1 051723Z 05008KT 28/22 A2997 RMK A01 T02800224  RH  072%=      5-min Rain = 0
KCH1 051724Z 05006KT 28/22 A2997 RMK A01 T02810224  RH  071%=      5-min Rain = 0
KCH1 051725Z 06006KT 28/23 A2997 RMK A01 T02820226  RH  072%=      5-min Rain = 0
KCH1 051726Z 07007KT 28/23 A2997 RMK A01 T02830225  RH  071%=      5-min Rain = 0
KCH1 051727Z 05005KT 28/23 A2997 RMK A01 T02840227  RH  071%=      5-min Rain = 0
KCH1 051728Z 06006KT 29/22 A2997 RMK A01 T02850223  RH  069%=      5-min Rain = 0
KCH1 051729Z 04006KT 29/22 A2997 RMK A01 T02850224  RH  070%=      5-min Rain = 0
KCH1 051730Z 05007KT 29/22 A2997 RMK A01 T02860224  RH  069%=      5-min Rain = 0
KCH1 051731Z 04005KT 29/22 A2997 RMK A01 T02870223  RH  068%=      5-min Rain = 0
KCH1 051732Z 05007KT 29/23 A2997 RMK A01 T02870226  RH  069%=      5-min Rain = 0
KCH1 051733Z 06009KT 29/23 A2997 RMK A01 T02900225  RH  068%=      5-min Rain = 0
KCH1 051734Z 06009KT 29/22 A2997 RMK A01 T02920224  RH  067%=      5-min Rain = 0
KCH1 051735Z 06008KT 29/22 A2997 RMK A01 T02940223  RH  066%=      5-min Rain = 0
KCH1 051736Z 07007KT 29/22 A2997 RMK A01 T02940224  RH  066%=      5-min Rain = 0
KCH1 051737Z 06006KT 30/23 A2997 RMK A01 T02960226  RH  066%=      5-min Rain = 0
KCH1 051738Z 06006KT 30/23 A2997 RMK A01 T02990227  RH  065%=      5-min Rain = 0
KCH1 051739Z 06009KT 30/23 A2997 RMK A01 T03010225  RH  064%=      5-min Rain = 0
KCH1 051740Z 05008KT 30/22 A2997 RMK A01 T02970223  RH  064%=      5-min Rain = 0
KCH1 051741Z 05009KT 30/22 A2997 RMK A01 T02960223  RH  065%=      5-min Rain = 0
KCH1 051742Z 06009KT 30/22 A2997 RMK A01 T02950221  RH  064%=      5-min Rain = 0
KCH1 051743Z 07008KT 30/22 A2997 RMK A01 T02950220  RH  064%=      5-min Rain = 0
KCH1 051744Z 09007KT 29/22 A2997 RMK A01 T02940221  RH  065%=      5-min Rain = 0
KCH1 051745Z 06007KT 29/22 A2997 RMK A01 T02940221  RH  065%=      5-min Rain = 0
KCH1 051746Z 04006KT 29/22 A2997 RMK A01 T02940220  RH  064%=      5-min Rain = 0
KCH1 051747Z 04008KT 29/22 A2997 RMK A01 T02930221  RH  065%=      5-min Rain = 0
KCH1 051748Z 06008KT 29/22 A2997 RMK A01 T02940221  RH  065%=      5-min Rain = 0
KCH1 051749Z 05006KT 30/22 A2997 RMK A01 T02950221  RH  064%=      5-min Rain = 0
KCH1 051750Z 03005KT 30/22 A2997 RMK A01 T02950220  RH  064%=      5-min Rain = 0
KCH1 051751Z 06003KT 30/22 A2997 RMK A01 T02950221  RH  064%=      5-min Rain = 0
KCH1 051752Z 08007KT 30/22 A2997 RMK A01 T02950221  RH  064%=      5-min Rain = 0
KCH1 051753Z 09009KT 30/22 A2997 RMK A01 T02970217  RH  062%=      5-min Rain = 0
KCH1 051754Z 08006KT 30/22 A2997 RMK A01 T02970217  RH  062%=      5-min Rain = 0
KCH1 051755Z 07007KT 29/22 A2997 RMK A01 T02940218  RH  064%=      5-min Rain = 0
KCH1 051756Z 09006KT 30/22 A2997 RMK A01 T02950218  RH  063%=      5-min Rain = 0
KCH1 051757Z 08005KT 30/22 A2997 RMK A01 T02970220  RH  063%=      5-min Rain = 0
KCH1 051758Z 09006KT 30/22 A2997 RMK A01 T03000219  RH  062%=      5-min Rain = 0
KCH1 051759Z 09006KT 30/22 A2997 RMK A01 T03010219  RH  062%=      5-min Rain = 0
KCH1 051800Z 07006KT 30/22 A2997 RMK A01 T03000221  RH  063%=      5-min Rain = 0
KCH1 051801Z 09006KT 30/22 A2997 RMK A01 T03030223  RH  062%=      5-min Rain = 0
KCH1 051802Z 06006KT 31/22 A2997 RMK A01 T03070223  RH  061%=      5-min Rain = 0
KCH1 051803Z 05008KT 31/22 A2997 RMK A01 T03090222  RH  060%=      5-min Rain = 0
KCH1 051804Z 04004KT 31/22 A2997 RMK A01 T03080223  RH  060%=      5-min Rain = 0
KCH1 051805Z 05005KT 31/22 A2997 RMK A01 T03100224  RH  060%=      5-min Rain = 0
KCH1 051806Z 07007KT 31/22 A2997 RMK A01 T03130224  RH  059%=      5-min Rain = 0
KCH1 051807Z 07005KT 31/22 A2997 RMK A01 T03130224  RH  059%=      5-min Rain = 0
KCH1 051808Z 07007KT 31/23 A2997 RMK A01 T03130225  RH  060%=      5-min Rain = 0
KCH1 051809Z 08006KT 31/22 A2997 RMK A01 T03130222  RH  058%=      5-min Rain = 0
KCH1 051810Z 08006KT 31/22 A2997 RMK A01 T03110224  RH  060%=      5-min Rain = 0
KCH1 051811Z 07006KT 31/22 A2997 RMK A01 T03080222  RH  060%=      5-min Rain = 0
KCH1 051812Z 06006KT 30/22 A2997 RMK A01 T03040221  RH  061%=      5-min Rain = 0
KCH1 051813Z 06005KT 30/22 A2997 RMK A01 T03010219  RH  062%=      5-min Rain = 0
KCH1 051814Z 04006KT 30/22 A2997 RMK A01 T03000217  RH  061%=      5-min Rain = 0
KCH1 051815Z 02006KT 30/22 A2997 RMK A01 T03010218  RH  061%=      5-min Rain = 0
KCH1 051816Z 07007KT 30/22 A2997 RMK A01 T03030219  RH  061%=      5-min Rain = 0
KCH1 051817Z 08007KT 31/22 A2996 RMK A01 T03060222  RH  061%=      5-min Rain = 0
KCH1 051818Z 09006KT 31/22 A2996 RMK A01 T03060219  RH  059%=      5-min Rain = 0
KCH1 051819Z 09004KT 31/22 A2996 RMK A01 T03070217  RH  059%=      5-min Rain = 0
KCH1 051820Z 08003KT 31/21 A2996 RMK A01 T03070214  RH  057%=      5-min Rain = 0
KCH1 051821Z 07003KT 31/22 A2996 RMK A01 T03080219  RH  059%=      5-min Rain = 0
KCH1 051822Z 08004KT 31/22 A2996 RMK A01 T03130218  RH  057%=      5-min Rain = 0
KCH1 051823Z 11001KT 31/22 A2996 RMK A01 T03130216  RH  056%=      5-min Rain = 0
KCH1 051824Z 08004KT 31/21 A2996 RMK A01 T03120214  RH  056%=      5-min Rain = 0
KCH1 051825Z 09003KT 31/22 A2996 RMK A01 T03110215  RH  056%=      5-min Rain = 0
KCH1 051826Z 06004KT 31/21 A2996 RMK A01 T03120214  RH  056%=      5-min Rain = 0
KCH1 051827Z 06006KT 31/21 A2996 RMK A01 T03140214  RH  055%=      5-min Rain = 0
KCH1 051828Z 07005KT 32/21 A2996 RMK A01 T03150211  RH  054%=      5-min Rain = 0
KCH1 051829Z 09005KT 31/21 A2996 RMK A01 T03110210  RH  055%=      5-min Rain = 0
KCH1 051830Z 08002KT 31/21 A2996 RMK A01 T03100209  RH  055%=      5-min Rain = 0
KCH1 051831Z 12003KT 31/21 A2996 RMK A01 T03100210  RH  055%=      5-min Rain = 0
KCH1 051832Z 13003KT 31/21 A2996 RMK A01 T03100210  RH  055%=      5-min Rain = 0
KCH1 051833Z 10003KT 31/21 A2996 RMK A01 T03090212  RH  056%=      5-min Rain = 0
KCH1 051834Z 07003KT 31/21 A2996 RMK A01 T03080214  RH  057%=      5-min Rain = 0
KCH1 051835Z 10005KT 31/21 A2996 RMK A01 T03090214  RH  057%=      5-min Rain = 0
KCH1 051836Z 11006KT 31/21 A2996 RMK A01 T03090213  RH  057%=      5-min Rain = 0
KCH1 051837Z 04007KT 31/21 A2996 RMK A01 T03100214  RH  056%=      5-min Rain = 0
KCH1 051838Z 06006KT 31/21 A2996 RMK A01 T03100213  RH  056%=      5-min Rain = 0
KCH1 051839Z 04002KT 31/21 A2996 RMK A01 T03090214  RH  057%=      5-min Rain = 0
KCH1 051840Z 07005KT 31/21 A2996 RMK A01 T03090214  RH  057%=      5-min Rain = 0
KCH1 051841Z 09006KT 31/22 A2996 RMK A01 T03090216  RH  058%=      5-min Rain = 0
KCH1 051842Z 07005KT 31/22 A2996 RMK A01 T03080216  RH  058%=      5-min Rain = 0
KCH1 051843Z 10004KT 31/22 A2996 RMK A01 T03080216  RH  058%=      5-min Rain = 0
KCH1 051844Z 11004KT 31/22 A2996 RMK A01 T03080216  RH  058%=      5-min Rain = 0
KCH1 051845Z 13004KT 31/22 A2996 RMK A01 T03070216  RH  058%=      5-min Rain = 0
KCH1 051846Z 08006KT 31/22 A2996 RMK A01 T03070215  RH  058%=      5-min Rain = 0
KCH1 051847Z 07007KT 31/22 A2996 RMK A01 T03070217  RH  059%=      5-min Rain = 0
KCH1 051848Z 07007KT 31/22 A2996 RMK A01 T03080216  RH  058%=      5-min Rain = 0
KCH1 051849Z 07004KT 31/22 A2996 RMK A01 T03080216  RH  058%=      5-min Rain = 0
KCH1 051850Z 10004KT 31/22 A2996 RMK A01 T03080215  RH  058%=      5-min Rain = 0
KCH1 051851Z 11004KT 31/22 A2996 RMK A01 T03070215  RH  058%=      5-min Rain = 0
KCH1 051852Z 12002KT 31/22 A2995 RMK A01 T03070215  RH  058%=      5-min Rain = 0
KCH1 051853Z 11004KT 31/21 A2995 RMK A01 T03070214  RH  058%=      5-min Rain = 0
KCH1 051854Z 10004KT 31/22 A2995 RMK A01 T03080216  RH  058%=      5-min Rain = 0
KCH1 051855Z 10004KT 31/22 A2995 RMK A01 T03100215  RH  057%=      5-min Rain = 0
KCH1 051856Z 07001KT 31/22 A2995 RMK A01 T03100216  RH  057%=      5-min Rain = 0
KCH1 051857Z 06002KT 31/22 A2995 RMK A01 T03120216  RH  057%=      5-min Rain = 0
KCH1 051858Z 09006KT 31/21 A2995 RMK A01 T03130214  RH  056%=      5-min Rain = 0
KCH1 051859Z 11006KT 31/21 A2995 RMK A01 T03120213  RH  056%=      5-min Rain = 0
KCH1 051900Z 12006KT 31/21 A2995 RMK A01 T03100213  RH  056%=      5-min Rain = 0
KCH1 051901Z 12005KT 31/21 A2995 RMK A01 T03090213  RH  056%=      5-min Rain = 0
KCH1 051902Z 11003KT 31/21 A2995 RMK A01 T03090213  RH  057%=      5-min Rain = 0
KCH1 051903Z 10002KT 31/21 A2995 RMK A01 T03090213  RH  057%=      5-min Rain = 0
KCH1 051904Z 11004KT 31/21 A2995 RMK A01 T03090213  RH  057%=      5-min Rain = 0
KCH1 051905Z 12004KT 31/21 A2995 RMK A01 T03090211  RH  056%=      5-min Rain = 0
KCH1 051906Z 14003KT 31/21 A2995 RMK A01 T03090212  RH  056%=      5-min Rain = 0
KCH1 051907Z 12005KT 31/21 A2995 RMK A01 T03100212  RH  056%=      5-min Rain = 0
KCH1 051908Z 12003KT 31/21 A2995 RMK A01 T03100212  RH  056%=      5-min Rain = 0
KCH1 051909Z 11003KT 31/21 A2995 RMK A01 T03100212  RH  056%=      5-min Rain = 0
KCH1 051910Z 10005KT 31/21 A2995 RMK A01 T03110213  RH  056%=      5-min Rain = 0
KCH1 051911Z 11008KT 31/21 A2995 RMK A01 T03110213  RH  056%=      5-min Rain = 0
KCH1 051912Z 09006KT 31/21 A2995 RMK A01 T03130214  RH  056%=      5-min Rain = 0
KCH1 051913Z 08006KT 31/21 A2995 RMK A01 T03140213  RH  055%=      5-min Rain = 0
KCH1 051914Z 07005KT 31/21 A2995 RMK A01 T03120213  RH  056%=      5-min Rain = 0
KCH1 051915Z 06005KT 31/21 A2995 RMK A01 T03110213  RH  056%=      5-min Rain = 0
KCH1 051916Z 04004KT 31/21 A2995 RMK A01 T03110212  RH  056%=      5-min Rain = 0
KCH1 051917Z 05005KT 31/21 A2995 RMK A01 T03100213  RH  056%=      5-min Rain = 0
KCH1 051918Z 07004KT 31/21 A2995 RMK A01 T03110213  RH  056%=      5-min Rain = 0
KCH1 051919Z 09004KT 31/21 A2995 RMK A01 T03110214  RH  056%=      5-min Rain = 0
KCH1 051920Z 07005KT 31/21 A2995 RMK A01 T03120214  RH  056%=      5-min Rain = 0
KCH1 051921Z 09005KT 31/21 A2995 RMK A01 T03120214  RH  056%=      5-min Rain = 0
KCH1 051922Z 10005KT 31/21 A2995 RMK A01 T03120214  RH  056%=      5-min Rain = 0
KCH1 051923Z 10004KT 31/21 A2994 RMK A01 T03120213  RH  056%=      5-min Rain = 0
KCH1 051924Z 11005KT 31/21 A2994 RMK A01 T03130214  RH  056%=      5-min Rain = 0
KCH1 051925Z 12005KT 31/21 A2994 RMK A01 T03130214  RH  056%=      5-min Rain = 0
KCH1 051926Z 11003KT 31/21 A2994 RMK A01 T03130214  RH  056%=      5-min Rain = 0
KCH1 051927Z 12003KT 31/21 A2994 RMK A01 T03130214  RH  056%=      5-min Rain = 0
KCH1 051928Z 12003KT 32/21 A2994 RMK A01 T03150214  RH  055%=      5-min Rain = 0
KCH1 051929Z 11003KT 32/21 A2994 RMK A01 T03160214  RH  054%=      5-min Rain = 0
KCH1 051930Z 11005KT 32/22 A2994 RMK A01 T03160216  RH  055%=      5-min Rain = 0
KCH1 051931Z 11005KT 32/22 A2994 RMK A01 T03170215  RH  055%=      5-min Rain = 0
KCH1 051932Z 10004KT 32/22 A2994 RMK A01 T03170217  RH  055%=      5-min Rain = 0
KCH1 051933Z 12003KT 32/22 A2994 RMK A01 T03160217  RH  056%=      5-min Rain = 0
KCH1 051934Z 11005KT 32/22 A2994 RMK A01 T03160218  RH  056%=      5-min Rain = 0
KCH1 051935Z 13006KT 32/22 A2994 RMK A01 T03150219  RH  057%=      5-min Rain = 0
KCH1 051936Z 11005KT 32/22 A2994 RMK A01 T03150220  RH  057%=      5-min Rain = 0
KCH1 051937Z 11004KT 32/22 A2994 RMK A01 T03150220  RH  057%=      5-min Rain = 0
KCH1 051938Z 10005KT 32/22 A2994 RMK A01 T03160220  RH  057%=      5-min Rain = 0
KCH1 051939Z 09004KT 32/22 A2994 RMK A01 T03150221  RH  057%=      5-min Rain = 0
KCH1 051940Z 09005KT 32/22 A2994 RMK A01 T03170220  RH  057%=      5-min Rain = 0
KCH1 051941Z 10005KT 32/22 A2994 RMK A01 T03180218  RH  055%=      5-min Rain = 0
KCH1 051942Z 06005KT 32/22 A2994 RMK A01 T03180219  RH  056%=      5-min Rain = 0
KCH1 051943Z 08005KT 32/22 A2993 RMK A01 T03230221  RH  055%=      5-min Rain = 0
KCH1 051944Z 10004KT 33/22 A2993 RMK A01 T03250221  RH  054%=      5-min Rain = 0
KCH1 051945Z 08004KT 33/22 A2993 RMK A01 T03260219  RH  053%=      5-min Rain = 0
KCH1 051946Z 07003KT 32/22 A2993 RMK A01 T03240218  RH  054%=      5-min Rain = 0
KCH1 051947Z 07003KT 32/22 A2993 RMK A01 T03220219  RH  054%=      5-min Rain = 0
KCH1 051948Z 08007KT 32/22 A2993 RMK A01 T03230219  RH  054%=      5-min Rain = 0
KCH1 051949Z 08008KT 33/22 A2993 RMK A01 T03260219  RH  053%=      5-min Rain = 0
KCH1 051950Z 10007KT 33/22 A2993 RMK A01 T03280220  RH  053%=      5-min Rain = 0
KCH1 051951Z 05006KT 33/22 A2993 RMK A01 T03310219  RH  052%=      5-min Rain = 0
KCH1 051952Z 07006KT 33/22 A2993 RMK A01 T03300217  RH  052%=      5-min Rain = 0
KCH1 051953Z 11002KT 33/22 A2993 RMK A01 T03280217  RH  052%=      5-min Rain = 0
KCH1 051954Z 12004KT 33/22 A2993 RMK A01 T03280216  RH  052%=      5-min Rain = 0
KCH1 051955Z 11005KT 33/22 A2993 RMK A01 T03290217  RH  052%=      5-min Rain = 0
KCH1 051956Z 10006KT 33/22 A2993 RMK A01 T03290216  RH  051%=      5-min Rain = 0
KCH1 051957Z 07005KT 33/22 A2993 RMK A01 T03280215  RH  052%=      5-min Rain = 0
KCH1 051958Z 07003KT 33/22 A2993 RMK A01 T03250215  RH  052%=      5-min Rain = 0
KCH1 051959Z 02003KT 33/21 A2992 RMK A01 T03250214  RH  052%=      5-min Rain = 0
KCH1 052000Z 35004KT 33/21 A2992 RMK A01 T03260212  RH  051%=      5-min Rain = 0
KCH1 052001Z 00002KT 33/21 A2992 RMK A01 T03260213  RH  051%=      5-min Rain = 0
KCH1 052002Z 06003KT 33/21 A2992 RMK A01 T03300214  RH  050%=      5-min Rain = 0
KCH1 052003Z 09007KT 33/22 A2992 RMK A01 T03320216  RH  050%=      5-min Rain = 0
KCH1 052004Z 07007KT 34/22 A2992 RMK A01 T03350217  RH  050%=      5-min Rain = 0
KCH1 052005Z 07006KT 34/21 A2992 RMK A01 T03350214  RH  049%=      5-min Rain = 0
KCH1 052006Z 09005KT 33/21 A2992 RMK A01 T03320214  RH  050%=      5-min Rain = 0
KCH1 052007Z 09004KT 33/21 A2992 RMK A01 T03320214  RH  050%=      5-min Rain = 0
KCH1 052008Z 04002KT 33/21 A2992 RMK A01 T03310214  RH  050%=      5-min Rain = 0
KCH1 052009Z 20001KT 33/21 A2992 RMK A01 T03300211  RH  050%=      5-min Rain = 0
KCH1 052010Z 22002KT 33/21 A2992 RMK A01 T03300211  RH  050%=      5-min Rain = 0
KCH1 052011Z 19003KT 33/21 A2992 RMK A01 T03330212  RH  049%=      5-min Rain = 0
KCH1 052012Z 06003KT 34/21 A2992 RMK A01 T03360213  RH  049%=      5-min Rain = 0
KCH1 052013Z 07005KT 34/22 A2992 RMK A01 T03410217  RH  049%=      5-min Rain = 0
KCH1 052014Z 07006KT 34/22 A2992 RMK A01 T03430216  RH  047%=      5-min Rain = 0
KCH1 052015Z 06006KT 34/21 A2992 RMK A01 T03410213  RH  047%=      5-min Rain = 0
KCH1 052016Z 05004KT 34/21 A2992 RMK A01 T03390209  RH  047%=      5-min Rain = 0
KCH1 052017Z 08007KT 34/21 A2992 RMK A01 T03370209  RH  047%=      5-min Rain = 0
KCH1 052018Z 09006KT 34/21 A2992 RMK A01 T03390209  RH  047%=      5-min Rain = 0
KCH1 052019Z 08004KT 34/21 A2992 RMK A01 T03380208  RH  047%=      5-min Rain = 0
KCH1 052020Z 07005KT 34/21 A2992 RMK A01 T03350206  RH  047%=      5-min Rain = 0
KCH1 052021Z 07004KT 33/21 A2992 RMK A01 T03330205  RH  047%=      5-min Rain = 0
KCH1 052022Z 07005KT 33/20 A2992 RMK A01 T03340204  RH  047%=      5-min Rain = 0
KCH1 052023Z 06006KT 34/20 A2992 RMK A01 T03350204  RH  046%=      5-min Rain = 0
KCH1 052024Z 04003KT 33/21 A2992 RMK A01 T03330205  RH  047%=      5-min Rain = 0
KCH1 052025Z 01002KT 33/21 A2992 RMK A01 T03310206  RH  048%=      5-min Rain = 0
KCH1 052026Z 32003KT 33/21 A2991 RMK A01 T03310205  RH  048%=      5-min Rain = 0
KCH1 052027Z 31003KT 33/21 A2991 RMK A01 T03320205  RH  047%=      5-min Rain = 0
KCH1 052028Z 33001KT 34/21 A2991 RMK A01 T03380208  RH  047%=      5-min Rain = 0
KCH1 052029Z 11000KT 34/21 A2991 RMK A01 T03410206  RH  046%=      5-min Rain = 0
KCH1 052030Z 09001KT 34/21 A2991 RMK A01 T03440208  RH  045%=      5-min Rain = 0
KCH1 052031Z 16004KT 35/21 A2991 RMK A01 T03470208  RH  044%=      5-min Rain = 0
KCH1 052032Z 09003G8KT 35/21 A2991 RMK A01 T03490208  RH  044%=      5-min Rain = 0
KCH1 052033Z 08008KT 35/21 A2991 RMK A01 T03480211  RH  045%=      5-min Rain = 0
KCH1 052034Z 07005KT 34/21 A2991 RMK A01 T03430208  RH  045%=      5-min Rain = 0
KCH1 052035Z 06004KT 34/21 A2991 RMK A01 T03390209  RH  047%=      5-min Rain = 0
KCH1 052036Z 11005KT 34/21 A2991 RMK A01 T03360209  RH  047%=      5-min Rain = 0
KCH1 052037Z 14004KT 34/21 A2991 RMK A01 T03350212  RH  048%=      5-min Rain = 0
KCH1 052038Z 13005KT 34/21 A2991 RMK A01 T03390212  RH  047%=      5-min Rain = 0
KCH1 052039Z 14005KT 34/21 A2991 RMK A01 T03390211  RH  047%=      5-min Rain = 0
KCH1 052040Z 12007KT 34/21 A2991 RMK A01 T03370212  RH  048%=      5-min Rain = 0
KCH1 052041Z 06007KT 34/21 A2991 RMK A01 T03380211  RH  047%=      5-min Rain = 0
KCH1 052042Z 02004KT 34/21 A2991 RMK A01 T03420212  RH  047%=      5-min Rain = 0
KCH1 052043Z 05004KT 35/21 A2991 RMK A01 T03450209  RH  045%=      5-min Rain = 0
KCH1 052044Z 03004KT 34/21 A2991 RMK A01 T03430209  RH  045%=      5-min Rain = 0
KCH1 052045Z 05002KT 35/21 A2991 RMK A01 T03450210  RH  045%=      5-min Rain = 0
KCH1 052046Z 13004KT 35/21 A2991 RMK A01 T03490210  RH  044%=      5-min Rain = 0
KCH1 052047Z 11004KT 35/21 A2991 RMK A01 T03490212  RH  045%=      5-min Rain = 0
KCH1 052048Z 10002KT 35/21 A2991 RMK A01 T03500210  RH  044%=      5-min Rain = 0
KCH1 052049Z 06001KT 35/21 A2991 RMK A01 T03500209  RH  044%=      5-min Rain = 0
KCH1 052050Z 06006KT 35/21 A2991 RMK A01 T03510208  RH  043%=      5-min Rain = 0
KCH1 052051Z 07005KT 35/21 A2991 RMK A01 T03470206  RH  044%=      5-min Rain = 0
KCH1 052052Z 09006KT 34/21 A299 RMK A01 T03440206  RH  045%=      5-min Rain = 0
KCH1 052053Z 05006KT 34/21 A2991 RMK A01 T03430206  RH  045%=      5-min Rain = 0
KCH1 052054Z 08004KT 34/21 A299 RMK A01 T03410205  RH  045%=      5-min Rain = 0
KCH1 052055Z 06003KT 34/21 A299 RMK A01 T03400207  RH  046%=      5-min Rain = 0
KCH1 052056Z 05003KT 34/21 A299 RMK A01 T03420205  RH  045%=      5-min Rain = 0
KCH1 052057Z 03002KT 34/21 A299 RMK A01 T03410205  RH  045%=      5-min Rain = 0
KCH1 052058Z 07002KT 34/21 A299 RMK A01 T03410205  RH  045%=      5-min Rain = 0
KCH1 052059Z 13002KT 34/21 A299 RMK A01 T03430208  RH  045%=      5-min Rain = 0
KCH1 052100Z 10004KT 35/21 A299 RMK A01 T03450211  RH  046%=      5-min Rain = 0
KCH1 052101Z 13005KT 35/21 A299 RMK A01 T03460212  RH  046%=      5-min Rain = 0
KCH1 052102Z 13007KT 35/21 A299 RMK A01 T03480210  RH  045%=      5-min Rain = 0
KCH1 052103Z 14003KT 35/21 A299 RMK A01 T03450209  RH  045%=      5-min Rain = 0
KCH1 052104Z 09007KT 34/21 A299 RMK A01 T03440212  RH  046%=      5-min Rain = 0
KCH1 052105Z 08005KT 34/21 A299 RMK A01 T03440212  RH  046%=      5-min Rain = 0
KCH1 052106Z 12006KT 34/21 A299 RMK A01 T03430212  RH  046%=      5-min Rain = 0
KCH1 052107Z 13004KT 34/21 A299 RMK A01 T03410211  RH  047%=      5-min Rain = 0
KCH1 052108Z 08003KT 34/21 A299 RMK A01 T03410211  RH  047%=      5-min Rain = 0
KCH1 052109Z 11007KT 34/21 A299 RMK A01 T03420212  RH  047%=      5-min Rain = 0
KCH1 052110Z 11008KT 35/21 A299 RMK A01 T03460212  RH  046%=      5-min Rain = 0
KCH1 052111Z 10008KT 35/21 A299 RMK A01 T03480211  RH  045%=      5-min Rain = 0
KCH1 052112Z 08006KT 35/21 A299 RMK A01 T03460211  RH  045%=      5-min Rain = 0
KCH1 052113Z 10006KT 34/21 A299 RMK A01 T03440210  RH  046%=      5-min Rain = 0
KCH1 052114Z 11007KT 35/21 A299 RMK A01 T03450210  RH  045%=      5-min Rain = 0
KCH1 052115Z 13005KT 35/21 A299 RMK A01 T03450209  RH  045%=      5-min Rain = 0
KCH1 052116Z 10006KT 35/21 A299 RMK A01 T03450210  RH  046%=      5-min Rain = 0
KCH1 052117Z 11008KT 34/21 A299 RMK A01 T03430209  RH  046%=      5-min Rain = 0
KCH1 052118Z 10007KT 34/21 A299 RMK A01 T03410210  RH  046%=      5-min Rain = 0
KCH1 052119Z 14005KT 34/21 A299 RMK A01 T03420208  RH  046%=      5-min Rain = 0
KCH1 052120Z 16002KT 34/21 A299 RMK A01 T03420208  RH  046%=      5-min Rain = 0
KCH1 052121Z 14002KT 34/21 A299 RMK A01 T03420208  RH  046%=      5-min Rain = 0
KCH1 052122Z 10004KT 34/21 A299 RMK A01 T03440209  RH  045%=      5-min Rain = 0
KCH1 052123Z 08001KT 35/21 A299 RMK A01 T03450209  RH  045%=      5-min Rain = 0
KCH1 052124Z 09002KT 34/21 A299 RMK A01 T03440209  RH  045%=      5-min Rain = 0
KCH1 052125Z 06005KT 34/21 A299 RMK A01 T03440209  RH  045%=      5-min Rain = 0
KCH1 052126Z 06008KT 35/21 A2989 RMK A01 T03460208  RH  045%=      5-min Rain = 0
KCH1 052127Z 07008KT 35/21 A2989 RMK A01 T03470208  RH  044%=      5-min Rain = 0
KCH1 052128Z 07005KT 35/21 A2989 RMK A01 T03480206  RH  044%=      5-min Rain = 0
KCH1 052129Z 07006KT 35/21 A2989 RMK A01 T03450206  RH  044%=      5-min Rain = 0
KCH1 052130Z 08003KT 35/21 A2989 RMK A01 T03450205  RH  044%=      5-min Rain = 0
KCH1 052131Z 10004KT 35/21 A2989 RMK A01 T03460207  RH  044%=      5-min Rain = 0
KCH1 052132Z 10002KT 35/21 A2989 RMK A01 T03460206  RH  044%=      5-min Rain = 0
KCH1 052133Z 06003KT 35/20 A2989 RMK A01 T03470204  RH  043%=      5-min Rain = 0
KCH1 052134Z 04004KT 35/20 A2989 RMK A01 T03460202  RH  043%=      5-min Rain = 0
KCH1 052135Z 05002KT 35/20 A2989 RMK A01 T03450201  RH  043%=      5-min Rain = 0
KCH1 052136Z 05002KT 35/20 A2989 RMK A01 T03450201  RH  043%=      5-min Rain = 0
KCH1 052137Z 06001KT 35/20 A2989 RMK A01 T03450201  RH  043%=      5-min Rain = 0
KCH1 052138Z 12004KT 34/20 A2989 RMK A01 T03440203  RH  044%=      5-min Rain = 0
KCH1 052139Z 11007KT 35/21 A2989 RMK A01 T03460208  RH  044%=      5-min Rain = 0
KCH1 052140Z 07003KT 35/21 A2989 RMK A01 T03470208  RH  044%=      5-min Rain = 0
KCH1 052141Z 08003KT 35/21 A2989 RMK A01 T03460210  RH  045%=      5-min Rain = 0
KCH1 052142Z 06008KT 35/21 A2989 RMK A01 T03470206  RH  044%=      5-min Rain = 0
KCH1 052143Z 07006KT 35/20 A2989 RMK A01 T03470204  RH  043%=      5-min Rain = 0
KCH1 052144Z 06008KT 35/21 A2989 RMK A01 T03480205  RH  043%=      5-min Rain = 0
KCH1 052145Z 08008KT 35/21 A2989 RMK A01 T03480205  RH  043%=      5-min Rain = 0
KCH1 052146Z 07007KT 35/21 A2989 RMK A01 T03500207  RH  043%=      5-min Rain = 0
KCH1 052147Z 08007KT 35/21 A2989 RMK A01 T03510207  RH  043%=      5-min Rain = 0
KCH1 052148Z 07006KT 35/21 A2989 RMK A01 T03500206  RH  043%=      5-min Rain = 0
KCH1 052149Z 09007KT 35/21 A2988 RMK A01 T03460206  RH  044%=      5-min Rain = 0
KCH1 052150Z 12008KT 35/21 A2988 RMK A01 T03460207  RH  044%=      5-min Rain = 0
KCH1 052151Z 13007KT 35/21 A2988 RMK A01 T03490206  RH  044%=      5-min Rain = 0
KCH1 052152Z 10007KT 35/21 A2988 RMK A01 T03520208  RH  043%=      5-min Rain = 0
KCH1 052153Z 11007KT 35/21 A2988 RMK A01 T03530208  RH  043%=      5-min Rain = 0
KCH1 052154Z 10009KT 35/21 A2988 RMK A01 T03490208  RH  044%=      5-min Rain = 0
KCH1 052155Z 09010KT 35/21 A2988 RMK A01 T03470207  RH  044%=      5-min Rain = 0
KCH1 052156Z 10006KT 35/21 A2988 RMK A01 T03450207  RH  045%=      5-min Rain = 0
KCH1 052157Z 08009KT 34/21 A2988 RMK A01 T03430207  RH  045%=      5-min Rain = 0
KCH1 052158Z 09007KT 34/21 A2988 RMK A01 T03440206  RH  045%=      5-min Rain = 0
KCH1 052159Z 09007KT 34/21 A2988 RMK A01 T03430207  RH  045%=      5-min Rain = 0
KCH1 052200Z 10009KT 34/21 A2988 RMK A01 T03430207  RH  045%=      5-min Rain = 0
KCH1 052201Z 11010KT 34/21 A2988 RMK A01 T03430207  RH  045%=      5-min Rain = 0
KCH1 052202Z 11011KT 34/21 A2988 RMK A01 T03440206  RH  045%=      5-min Rain = 0
KCH1 052203Z 08008KT 35/21 A2988 RMK A01 T03450206  RH  044%=      5-min Rain = 0
KCH1 052204Z 09007KT 34/21 A2988 RMK A01 T03430205  RH  044%=      5-min Rain = 0
KCH1 052205Z 10006KT 34/21 A2988 RMK A01 T03430207  RH  045%=      5-min Rain = 0
KCH1 052206Z 11005KT 34/21 A2988 RMK A01 T03440205  RH  044%=      5-min Rain = 0
KCH1 052207Z 13002KT 34/20 A2988 RMK A01 T03430204  RH  044%=      5-min Rain = 0
KCH1 052208Z 10005G10KT 34/21 A2988 RMK A01 T03430206  RH  045%=      5-min Rain = 0
KCH1 052209Z 08007KT 35/21 A2988 RMK A01 T03450205  RH  044%=      5-min Rain = 0
KCH1 052210Z 08004KT 34/21 A2988 RMK A01 T03440205  RH  044%=      5-min Rain = 0
KCH1 052211Z 11002KT 35/21 A2988 RMK A01 T03450205  RH  044%=      5-min Rain = 0
KCH1 052212Z 10003G8KT 35/21 A2988 RMK A01 T03470205  RH  043%=      5-min Rain = 0
KCH1 052213Z 12008KT 35/21 A2988 RMK A01 T03480206  RH  043%=      5-min Rain = 0
KCH1 052214Z 12008KT 35/21 A2987 RMK A01 T03480205  RH  043%=      5-min Rain = 0
KCH1 052215Z 11009KT 35/21 A2987 RMK A01 T03480205  RH  043%=      5-min Rain = 0
KCH1 052216Z 07007KT 35/21 A2987 RMK A01 T03480205  RH  043%=      5-min Rain = 0
KCH1 052217Z 06009KT 35/20 A2987 RMK A01 T03480204  RH  043%=      5-min Rain = 0
KCH1 052218Z 07010KT 35/20 A2987 RMK A01 T03470204  RH  043%=      5-min Rain = 0
KCH1 052219Z 07007KT 35/20 A2987 RMK A01 T03450204  RH  044%=      5-min Rain = 0
KCH1 052220Z 10008KT 35/20 A2987 RMK A01 T03450204  RH  044%=      5-min Rain = 0
KCH1 052221Z 10006KT 35/20 A2987 RMK A01 T03450203  RH  043%=      5-min Rain = 0
KCH1 052222Z 11005KT 35/20 A2987 RMK A01 T03450203  RH  044%=      5-min Rain = 0
KCH1 052223Z 11004KT 34/20 A2987 RMK A01 T03440203  RH  044%=      5-min Rain = 0
KCH1 052224Z 12003KT 35/20 A2987 RMK A01 T03450204  RH  044%=      5-min Rain = 0
KCH1 052225Z 10006KT 35/21 A2987 RMK A01 T03470205  RH  043%=      5-min Rain = 0
KCH1 052226Z 12009KT 35/20 A2987 RMK A01 T03490204  RH  043%=      5-min Rain = 0
KCH1 052227Z 11007KT 35/21 A2987 RMK A01 T03490206  RH  043%=      5-min Rain = 0
KCH1 052228Z 08007KT 35/21 A2987 RMK A01 T03510207  RH  043%=      5-min Rain = 0
KCH1 052229Z 07008KT 35/21 A2987 RMK A01 T03520207  RH  043%=      5-min Rain = 0
KCH1 052230Z 08009KT 35/21 A2987 RMK A01 T03530205  RH  042%=      5-min Rain = 0
KCH1 052231Z 08009KT 35/20 A2987 RMK A01 T03490204  RH  043%=      5-min Rain = 0
KCH1 052232Z 07008KT 35/20 A2987 RMK A01 T03460203  RH  043%=      5-min Rain = 0
KCH1 052233Z 10007KT 35/20 A2987 RMK A01 T03460204  RH  044%=      5-min Rain = 0
KCH1 052234Z 09009KT 35/20 A2987 RMK A01 T03470203  RH  043%=      5-min Rain = 0
KCH1 052235Z 09007KT 35/20 A2987 RMK A01 T03460202  RH  043%=      5-min Rain = 0
KCH1 052236Z 08004KT 34/20 A2987 RMK A01 T03440201  RH  043%=      5-min Rain = 0
KCH1 052237Z 09006KT 34/20 A2986 RMK A01 T03420202  RH  044%=      5-min Rain = 0
KCH1 052238Z 08007G13KT 34/20 A2986 RMK A01 T03440204  RH  044%=      5-min Rain = 0
KCH1 052239Z 08010KT 35/20 A2986 RMK A01 T03480202  RH  043%=      5-min Rain = 0
KCH1 052240Z 09007KT 35/20 A2987 RMK A01 T03490202  RH  042%=      5-min Rain = 0
KCH1 052241Z 08004KT 35/20 A2986 RMK A01 T03480201  RH  042%=      5-min Rain = 0
KCH1 052242Z 10003KT 35/20 A2986 RMK A01 T03460200  RH  042%=      5-min Rain = 0
KCH1 052243Z 08002KT 34/20 A2986 RMK A01 T03440199  RH  043%=      5-min Rain = 0
KCH1 052244Z 09001KT 34/20 A2986 RMK A01 T03430198  RH  043%=      5-min Rain = 0
KCH1 052245Z 05001KT 34/20 A2986 RMK A01 T03420199  RH  043%=      5-min Rain = 0
KCH1 052246Z 07004KT 35/20 A2986 RMK A01 T03450200  RH  043%=      5-min Rain = 0
KCH1 052247Z 08001KT 35/20 A2986 RMK A01 T03460198  RH  042%=      5-min Rain = 0
KCH1 052248Z 07002KT 35/20 A2986 RMK A01 T03450198  RH  042%=      5-min Rain = 0
KCH1 052249Z 08007KT 35/20 A2986 RMK A01 T03460201  RH  043%=      5-min Rain = 0
KCH1 052250Z 09005KT 35/20 A2986 RMK A01 T03480201  RH  042%=      5-min Rain = 0
KCH1 052251Z 11007KT 35/20 A2986 RMK A01 T03510201  RH  042%=      5-min Rain = 0
KCH1 052252Z 11005KT 35/20 A2986 RMK A01 T03510200  RH  041%=      5-min Rain = 0
KCH1 052253Z 10003KT 35/20 A2986 RMK A01 T03490198  RH  041%=      5-min Rain = 0
KCH1 052254Z 11003KT 35/20 A2986 RMK A01 T03480198  RH  042%=      5-min Rain = 0
KCH1 052255Z 09005KT 35/20 A2986 RMK A01 T03480199  RH  042%=      5-min Rain = 0
KCH1 052256Z 11004KT 35/20 A2986 RMK A01 T03490201  RH  042%=      5-min Rain = 0
KCH1 052257Z 11005KT 35/20 A2986 RMK A01 T03510201  RH  042%=      5-min Rain = 0
KCH1 052258Z 12006KT 35/20 A2986 RMK A01 T03530201  RH  041%=      5-min Rain = 0
KCH1 052259Z 11008KT 35/20 A2986 RMK A01 T03520198  RH  041%=      5-min Rain = 0
KCH1 052300Z 10006KT 35/20 A2986 RMK A01 T03500198  RH  041%=      5-min Rain = 0
KCH1 052301Z 07006KT 35/20 A2986 RMK A01 T03480200  RH  042%=      5-min Rain = 0
KCH1 052302Z 07006KT 35/20 A2985 RMK A01 T03480199  RH  042%=      5-min Rain = 0
KCH1 052303Z 07007KT 35/20 A2985 RMK A01 T03490199  RH  042%=      5-min Rain = 0
KCH1 052304Z 08006KT 35/20 A2985 RMK A01 T03490197  RH  041%=      5-min Rain = 0
KCH1 052305Z 08004KT 35/20 A2985 RMK A01 T03470197  RH  041%=      5-min Rain = 0
KCH1 052306Z 10004KT 35/20 A2985 RMK A01 T03450197  RH  042%=      5-min Rain = 0
KCH1 052307Z 08005KT 35/20 A2985 RMK A01 T03450198  RH  042%=      5-min Rain = 0
KCH1 052308Z 10007KT 35/20 A2985 RMK A01 T03460199  RH  042%=      5-min Rain = 0
KCH1 052309Z 08006KT 35/20 A2985 RMK A01 T03470200  RH  042%=      5-min Rain = 0
KCH1 052310Z 08006KT 35/20 A2985 RMK A01 T03470199  RH  042%=      5-min Rain = 0
KCH1 052311Z 09006KT 35/20 A2985 RMK A01 T03480199  RH  042%=      5-min Rain = 0
KCH1 052312Z 10005KT 35/20 A2985 RMK A01 T03480197  RH  041%=      5-min Rain = 0
KCH1 052313Z 07007KT 35/20 A2985 RMK A01 T03470199  RH  042%=      5-min Rain = 0
KCH1 052314Z 08006KT 35/20 A2985 RMK A01 T03490198  RH  041%=      5-min Rain = 0
KCH1 052315Z 09004KT 35/20 A2985 RMK A01 T03490199  RH  041%=      5-min Rain = 0
KCH1 052316Z 07005KT 35/20 A2985 RMK A01 T03490198  RH  041%=      5-min Rain = 0
KCH1 052317Z 06005KT 35/20 A2985 RMK A01 T03490196  RH  041%=      5-min Rain = 0
KCH1 052318Z 04005KT 35/20 A2985 RMK A01 T03480197  RH  041%=      5-min Rain = 0
KCH1 052319Z 06004KT 35/20 A2985 RMK A01 T03470196  RH  041%=      5-min Rain = 0
KCH1 052320Z 08007KT 35/20 A2985 RMK A01 T03470196  RH  041%=      5-min Rain = 0
KCH1 052321Z 07005G10KT 35/20 A2985 RMK A01 T03470196  RH  041%=      5-min Rain = 0
KCH1 052322Z 05002KT 35/20 A2985 RMK A01 T03470196  RH  041%=      5-min Rain = 0
KCH1 052323Z 02003KT 35/20 A2985 RMK A01 T03470196  RH  041%=      5-min Rain = 0
KCH1 052324Z 05002KT 35/19 A2984 RMK A01 T03480194  RH  041%=      5-min Rain = 0
KCH1 052325Z 09002KT 35/20 A2984 RMK A01 T03480196  RH  041%=      5-min Rain = 0
KCH1 052326Z 09006KT 35/20 A2984 RMK A01 T03490199  RH  041%=      5-min Rain = 0
KCH1 052327Z 09006KT 35/20 A2984 RMK A01 T03490201  RH  042%=      5-min Rain = 0
KCH1 052328Z 10003KT 35/20 A2984 RMK A01 T03470200  RH  042%=      5-min Rain = 0
KCH1 052329Z 11003KT 35/20 A2984 RMK A01 T03460200  RH  042%=      5-min Rain = 0
KCH1 052330Z 10005KT 35/20 A2984 RMK A01 T03470201  RH  042%=      5-min Rain = 0
KCH1 052331Z 09004KT 35/20 A2984 RMK A01 T03480198  RH  042%=      5-min Rain = 0
KCH1 052332Z 08004KT 35/20 A2984 RMK A01 T03470199  RH  042%=      5-min Rain = 0
KCH1 052333Z 09003KT 35/20 A2984 RMK A01 T03460199  RH  042%=      5-min Rain = 0
KCH1 052334Z 12007KT 35/20 A2984 RMK A01 T03470200  RH  042%=      5-min Rain = 0
KCH1 052335Z 11007KT 35/20 A2984 RMK A01 T03490198  RH  041%=      5-min Rain = 0
KCH1 052336Z 10005KT 35/20 A2984 RMK A01 T03480198  RH  041%=      5-min Rain = 0
KCH1 052337Z 10008KT 35/20 A2984 RMK A01 T03460199  RH  042%=      5-min Rain = 0
KCH1 052338Z 09008KT 35/20 A2984 RMK A01 T03450199  RH  042%=      5-min Rain = 0
KCH1 052339Z 10005KT 34/20 A2984 RMK A01 T03440198  RH  043%=      5-min Rain = 0
KCH1 052340Z 08004KT 34/20 A2984 RMK A01 T03430199  RH  043%=      5-min Rain = 0
KCH1 052341Z 09005KT 35/20 A2984 RMK A01 T03450198  RH  042%=      5-min Rain = 0
KCH1 052342Z 11004KT 35/20 A2984 RMK A01 T03470199  RH  042%=      5-min Rain = 0
KCH1 052343Z 11005KT 35/20 A2984 RMK A01 T03480196  RH  041%=      5-min Rain = 0
KCH1 052344Z 09006KT 35/20 A2984 RMK A01 T03480198  RH  041%=      5-min Rain = 0
KCH1 052345Z 09006KT 35/20 A2984 RMK A01 T03480196  RH  041%=      5-min Rain = 0
KCH1 052346Z 08005KT 35/20 A2984 RMK A01 T03460195  RH  041%=      5-min Rain = 0
KCH1 052347Z 09005KT 35/19 A2984 RMK A01 T03450194  RH  041%=      5-min Rain = 0
KCH1 052348Z 09006KT 34/19 A2984 RMK A01 T03440194  RH  041%=      5-min Rain = 0
KCH1 052349Z 08005KT 34/20 A2984 RMK A01 T03440195  RH  041%=      5-min Rain = 0
KCH1 052350Z 07005KT 34/19 A2984 RMK A01 T03440192  RH  041%=      5-min Rain = 0
KCH1 052351Z 08006KT 34/19 A2984 RMK A01 T03440193  RH  041%=      5-min Rain = 0
KCH1 052352Z 08008KT 34/20 A2984 RMK A01 T03440196  RH  042%=      5-min Rain = 0
KCH1 052353Z 09007KT 35/20 A2984 RMK A01 T03450197  RH  042%=      5-min Rain = 0
KCH1 052354Z 09008KT 35/20 A2983 RMK A01 T03450197  RH  042%=      5-min Rain = 0
KCH1 052355Z 11007KT 34/20 A2983 RMK A01 T03440196  RH  042%=      5-min Rain = 0
KCH1 052356Z 11007KT 34/20 A2983 RMK A01 T03430196  RH  042%=      5-min Rain = 0
KCH1 052357Z 09006KT 34/20 A2983 RMK A01 T03430196  RH  042%=      5-min Rain = 0
KCH1 052358Z 10005KT 34/20 A2983 RMK A01 T03410195  RH  042%=      5-min Rain = 0
KCH1 052359Z 08006KT 34/20 A2983 RMK A01 T03400197  RH  043%=      5-min Rain = 0
KCH1 060000Z 07005KT 34/20 A2983 RMK A01 T03410196  RH  043%=      5-min Rain = 0
KCH1 060001Z 08005KT 34/20 A2983 RMK A01 T03400196  RH  043%=      5-min Rain = 0
KCH1 060002Z 07005KT 34/20 A2983 RMK A01 T03400195  RH  043%=      5-min Rain = 0
KCH1 060003Z 09006KT 34/20 A2983 RMK A01 T03400195  RH  042%=      5-min Rain = 0
KCH1 060004Z 08005KT 34/20 A2983 RMK A01 T03400195  RH  042%=      5-min Rain = 0
KCH1 060005Z 08007KT 34/20 A2983 RMK A01 T03410195  RH  042%=      5-min Rain = 0
KCH1 060006Z 06005KT 34/19 A2983 RMK A01 T03410194  RH  042%=      5-min Rain = 0
KCH1 060007Z 08005KT 34/20 A2983 RMK A01 T03420195  RH  042%=      5-min Rain = 0
KCH1 060008Z 09008KT 34/20 A2983 RMK A01 T03420197  RH  043%=      5-min Rain = 0
KCH1 060009Z 09009KT 34/20 A2983 RMK A01 T03420196  RH  042%=      5-min Rain = 0
KCH1 060010Z 10008KT 34/20 A2983 RMK A01 T03400195  RH  043%=      5-min Rain = 0
KCH1 060011Z 09009KT 34/20 A2983 RMK A01 T03400196  RH  043%=      5-min Rain = 0
KCH1 060012Z 09008KT 34/20 A2983 RMK A01 T03390195  RH  043%=      5-min Rain = 0
KCH1 060013Z 11007KT 34/20 A2983 RMK A01 T03380195  RH  043%=      5-min Rain = 0
KCH1 060014Z 09007KT 34/20 A2983 RMK A01 T03390196  RH  043%=      5-min Rain = 0
KCH1 060015Z 10007KT 34/20 A2983 RMK A01 T03390195  RH  043%=      5-min Rain = 0
KCH1 060016Z 09007KT 34/20 A2983 RMK A01 T03390195  RH  043%=      5-min Rain = 0
KCH1 060017Z 07007KT 34/19 A2983 RMK A01 T03380194  RH  043%=      5-min Rain = 0
KCH1 060018Z 07005KT 34/20 A2983 RMK A01 T03380195  RH  043%=      5-min Rain = 0
KCH1 060019Z 07008KT 34/20 A2983 RMK A01 T03390196  RH  043%=      5-min Rain = 0
KCH1 060020Z 07006KT 34/20 A2983 RMK A01 T03390196  RH  043%=      5-min Rain = 0
KCH1 060021Z 09006KT 34/20 A2983 RMK A01 T03380198  RH  044%=      5-min Rain = 0
KCH1 060022Z 10008KT 34/20 A2983 RMK A01 T03380198  RH  044%=      5-min Rain = 0
KCH1 060023Z 10007KT 34/20 A2983 RMK A01 T03380199  RH  044%=      5-min Rain = 0
KCH1 060024Z 09006KT 34/20 A2983 RMK A01 T03370200  RH  045%=      5-min Rain = 0
KCH1 060025Z 08009KT 34/20 A2983 RMK A01 T03370199  RH  045%=      5-min Rain = 0
KCH1 060026Z 08008KT 34/20 A2983 RMK A01 T03370200  RH  045%=      5-min Rain = 0
KCH1 060027Z 08008KT 34/20 A2983 RMK A01 T03370200  RH  045%=      5-min Rain = 0
KCH1 060028Z 08007KT 34/20 A2983 RMK A01 T03370199  RH  045%=      5-min Rain = 0
KCH1 060029Z 08006KT 34/20 A2983 RMK A01 T03370199  RH  045%=      5-min Rain = 0
KCH1 060030Z 07008KT 34/20 A2983 RMK A01 T03360200  RH  045%=      5-min Rain = 0
KCH1 060031Z 07010KT 34/20 A2983 RMK A01 T03360199  RH  045%=      5-min Rain = 0
KCH1 060032Z 08007KT 34/20 A2984 RMK A01 T03350199  RH  045%=      5-min Rain = 0
KCH1 060033Z 08009KT 34/20 A2984 RMK A01 T03350200  RH  045%=      5-min Rain = 0
KCH1 060034Z 09009KT 33/20 A2984 RMK A01 T03340200  RH  045%=      5-min Rain = 0
KCH1 060035Z 09008KT 33/20 A2984 RMK A01 T03340200  RH  046%=      5-min Rain = 0
KCH1 060036Z 08007KT 33/20 A2984 RMK A01 T03330201  RH  046%=      5-min Rain = 0
KCH1 060037Z 08009KT 33/20 A2984 RMK A01 T03330200  RH  046%=      5-min Rain = 0
KCH1 060038Z 08009KT 33/20 A2984 RMK A01 T03330199  RH  046%=      5-min Rain = 0
KCH1 060039Z 09007KT 33/20 A2984 RMK A01 T03320199  RH  045%=      5-min Rain = 0
KCH1 060040Z 09008KT 33/20 A2984 RMK A01 T03320198  RH  045%=      5-min Rain = 0
KCH1 060041Z 09007KT 33/20 A2984 RMK A01 T03310198  RH  046%=      5-min Rain = 0
KCH1 060042Z 10009KT 33/20 A2984 RMK A01 T03310198  RH  046%=      5-min Rain = 0
KCH1 060043Z 09007KT 33/20 A2984 RMK A01 T03310198  RH  046%=      5-min Rain = 0
KCH1 060044Z 09009KT 33/20 A2984 RMK A01 T03310199  RH  046%=      5-min Rain = 0
KCH1 060045Z 09009KT 33/20 A2984 RMK A01 T03310200  RH  046%=      5-min Rain = 0
KCH1 060046Z 09007KT 33/20 A2984 RMK A01 T03300200  RH  047%=      5-min Rain = 0
KCH1 060047Z 08009KT 33/20 A2984 RMK A01 T03300201  RH  047%=      5-min Rain = 0
KCH1 060048Z 08010KT 33/20 A2984 RMK A01 T03290200  RH  047%=      5-min Rain = 0
KCH1 060049Z 07009KT 33/20 A2984 RMK A01 T03280201  RH  047%=      5-min Rain = 0
KCH1 060050Z 06008KT 33/20 A2985 RMK A01 T03280201  RH  047%=      5-min Rain = 0
KCH1 060051Z 07008KT 33/20 A2985 RMK A01 T03270201  RH  047%=      5-min Rain = 0
KCH1 060052Z 07007KT 33/20 A2985 RMK A01 T03280202  RH  048%=      5-min Rain = 0
KCH1 060053Z 08007KT 33/20 A2985 RMK A01 T03280202  RH  048%=      5-min Rain = 0
KCH1 060054Z 07009KT 33/20 A2985 RMK A01 T03270202  RH  048%=      5-min Rain = 0
KCH1 060055Z 07009KT 33/20 A2985 RMK A01 T03270202  RH  048%=      5-min Rain = 0
KCH1 060056Z 08008KT 33/20 A2985 RMK A01 T03270202  RH  048%=      5-min Rain = 0
KCH1 060057Z 08010KT 33/20 A2984 RMK A01 T03270202  RH  048%=      5-min Rain = 0
KCH1 060058Z 07008KT 33/20 A2984 RMK A01 T03260202  RH  048%=      5-min Rain = 0
KCH1 060059Z 08010KT 33/20 A2984 RMK A01 T03260202  RH  048%=      5-min Rain = 0
KCH1 060100Z 07010KT 33/20 A2984 RMK A01 T03250202  RH  048%=      5-min Rain = 0
KCH1 060101Z 07011KT 32/20 A2985 RMK A01 T03240203  RH  049%=      5-min Rain = 0
KCH1 060102Z 07010KT 32/20 A2985 RMK A01 T03240203  RH  049%=      5-min Rain = 0
KCH1 060103Z 07009KT 32/20 A2985 RMK A01 T03240204  RH  049%=      5-min Rain = 0
KCH1 060104Z 07011KT 32/20 A2985 RMK A01 T03230203  RH  049%=      5-min Rain = 0
KCH1 060105Z 07010KT 32/20 A2985 RMK A01 T03230203  RH  049%=      5-min Rain = 0
KCH1 060106Z 07009KT 32/20 A2985 RMK A01 T03230204  RH  049%=      5-min Rain = 0
KCH1 060107Z 07011KT 32/20 A2985 RMK A01 T03220203  RH  049%=      5-min Rain = 0
KCH1 060108Z 07010KT 32/20 A2985 RMK A01 T03220204  RH  050%=      5-min Rain = 0
KCH1 060109Z 07010KT 32/20 A2985 RMK A01 T03220204  RH  050%=      5-min Rain = 0
KCH1 060110Z 08009KT 32/21 A2985 RMK A01 T03210205  RH  050%=      5-min Rain = 0
KCH1 060111Z 08009G14KT 32/21 A2985 RMK A01 T03210206  RH  051%=      5-min Rain = 0
KCH1 060112Z 08009KT 32/21 A2985 RMK A01 T03210207  RH  051%=      5-min Rain = 0
KCH1 060113Z 08011KT 32/21 A2985 RMK A01 T03200207  RH  051%=      5-min Rain = 0
KCH1 060114Z 08012KT 32/21 A2985 RMK A01 T03200208  RH  052%=      5-min Rain = 0
KCH1 060115Z 08010KT 32/21 A2985 RMK A01 T03190209  RH  052%=      5-min Rain = 0
KCH1 060116Z 08009KT 32/21 A2985 RMK A01 T03190209  RH  052%=      5-min Rain = 0
KCH1 060117Z 08008KT 32/21 A2985 RMK A01 T03180210  RH  053%=      5-min Rain = 0
KCH1 060118Z 08012KT 32/21 A2985 RMK A01 T03180210  RH  053%=      5-min Rain = 0
KCH1 060119Z 08010KT 32/21 A2985 RMK A01 T03180210  RH  053%=      5-min Rain = 0
KCH1 060120Z 08011KT 32/21 A2985 RMK A01 T03170210  RH  053%=      5-min Rain = 0
KCH1 060121Z 07011KT 32/21 A2985 RMK A01 T03170211  RH  053%=      5-min Rain = 0
KCH1 060122Z 08009KT 32/21 A2985 RMK A01 T03170211  RH  054%=      5-min Rain = 0
KCH1 060123Z 09009KT 32/21 A2985 RMK A01 T03160211  RH  054%=      5-min Rain = 0
KCH1 060124Z 08008KT 32/21 A2985 RMK A01 T03160212  RH  054%=      5-min Rain = 0
KCH1 060125Z 07010KT 32/21 A2985 RMK A01 T03150212  RH  054%=      5-min Rain = 0
KCH1 060126Z 07011KT 32/21 A2985 RMK A01 T03150212  RH  054%=      5-min Rain = 0
KCH1 060127Z 08009KT 32/21 A2985 RMK A01 T03150212  RH  055%=      5-min Rain = 0
KCH1 060128Z 08010KT 31/21 A2985 RMK A01 T03140212  RH  055%=      5-min Rain = 0
KCH1 060129Z 08013KT 31/21 A2985 RMK A01 T03130213  RH  055%=      5-min Rain = 0
KCH1 060130Z 09013KT 31/21 A2985 RMK A01 T03130214  RH  055%=      5-min Rain = 0
KCH1 060131Z 09011KT 31/21 A2985 RMK A01 T03130213  RH  056%=      5-min Rain = 0
KCH1 060132Z 08011KT 31/21 A2985 RMK A01 T03130214  RH  056%=      5-min Rain = 0
KCH1 060133Z 08011KT 31/21 A2985 RMK A01 T03120214  RH  056%=      5-min Rain = 0
KCH1 060134Z 08010KT 31/22 A2985 RMK A01 T03120215  RH  056%=      5-min Rain = 0
KCH1 060135Z 08009KT 31/22 A2985 RMK A01 T03110215  RH  057%=      5-min Rain = 0
KCH1 060136Z 08013KT 31/22 A2985 RMK A01 T03110216  RH  057%=      5-min Rain = 0
KCH1 060137Z 08011KT 31/22 A2985 RMK A01 T03100216  RH  057%=      5-min Rain = 0
KCH1 060138Z 08011KT 31/22 A2985 RMK A01 T03100216  RH  058%=      5-min Rain = 0
KCH1 060139Z 08010KT 31/22 A2985 RMK A01 T03090216  RH  058%=      5-min Rain = 0
KCH1 060140Z 07010KT 31/22 A2985 RMK A01 T03090216  RH  058%=      5-min Rain = 0
KCH1 060141Z 07009KT 31/22 A2985 RMK A01 T03080216  RH  058%=      5-min Rain = 0
KCH1 060142Z 09009KT 31/22 A2986 RMK A01 T03080216  RH  058%=      5-min Rain = 0
KCH1 060143Z 09010KT 31/22 A2986 RMK A01 T03070216  RH  058%=      5-min Rain = 0
KCH1 060144Z 09008KT 31/22 A2986 RMK A01 T03070216  RH  058%=      5-min Rain = 0
KCH1 060145Z 09010KT 31/22 A2986 RMK A01 T03070217  RH  059%=      5-min Rain = 0
KCH1 060146Z 09009KT 31/22 A2986 RMK A01 T03070217  RH  059%=      5-min Rain = 0
KCH1 060147Z 09007KT 31/22 A2986 RMK A01 T03060216  RH  059%=      5-min Rain = 0
KCH1 060148Z 09010KT 31/22 A2986 RMK A01 T03060216  RH  059%=      5-min Rain = 0
KCH1 060149Z 09009KT 31/22 A2987 RMK A01 T03050216  RH  059%=      5-min Rain = 0
KCH1 060150Z 09009KT 31/22 A2987 RMK A01 T03050216  RH  059%=      5-min Rain = 0
KCH1 060151Z 09012KT 31/22 A2987 RMK A01 T03050216  RH  059%=      5-min Rain = 0
KCH1 060152Z 09011KT 31/22 A2987 RMK A01 T03050217  RH  059%=      5-min Rain = 0
KCH1 060153Z 09011KT 31/22 A2987 RMK A01 T03050216  RH  059%=      5-min Rain = 0
KCH1 060154Z 09010KT 30/22 A2987 RMK A01 T03040217  RH  059%=      5-min Rain = 0
KCH1 060155Z 09013KT 30/22 A2987 RMK A01 T03040217  RH  060%=      5-min Rain = 0
KCH1 060156Z 09010KT 30/22 A2987 RMK A01 T03030216  RH  060%=      5-min Rain = 0
KCH1 060157Z 09011KT 30/22 A2986 RMK A01 T03040217  RH  060%=      5-min Rain = 0
KCH1 060158Z 09008KT 30/22 A2986 RMK A01 T03030217  RH  060%=      5-min Rain = 0
KCH1 060159Z 09009G14KT 30/22 A2986 RMK A01 T03030217  RH  060%=      5-min Rain = 0
KCH1 060200Z 09009KT 30/22 A2986 RMK A01 T03030217  RH  060%=      5-min Rain = 0
KCH1 060201Z 09010KT 30/22 A2986 RMK A01 T03020217  RH  060%=      5-min Rain = 0
KCH1 060202Z 09010KT 30/22 A2986 RMK A01 T03020216  RH  060%=      5-min Rain = 0
KCH1 060203Z 09009KT 30/22 A2986 RMK A01 T03020217  RH  060%=      5-min Rain = 0
KCH1 060204Z 08008KT 30/22 A2986 RMK A01 T03010216  RH  060%=      5-min Rain = 0
KCH1 060205Z 08008KT 30/22 A2986 RMK A01 T03010216  RH  061%=      5-min Rain = 0
KCH1 060206Z 08010KT 30/22 A2986 RMK A01 T03000216  RH  061%=      5-min Rain = 0
KCH1 060207Z 08008KT 30/22 A2986 RMK A01 T03000216  RH  061%=      5-min Rain = 0
KCH1 060208Z 09009KT 30/22 A2986 RMK A01 T03000216  RH  061%=      5-min Rain = 0
KCH1 060209Z 08009KT 30/22 A2986 RMK A01 T02990216  RH  061%=      5-min Rain = 0
KCH1 060210Z 07009KT 30/22 A2986 RMK A01 T02990216  RH  061%=      5-min Rain = 0
KCH1 060211Z 08011KT 30/22 A2986 RMK A01 T02990216  RH  061%=      5-min Rain = 0
KCH1 060212Z 08011KT 30/22 A2986 RMK A01 T02990216  RH  061%=      5-min Rain = 0
KCH1 060213Z 09010KT 30/22 A2986 RMK A01 T02990216  RH  061%=      5-min Rain = 0
KCH1 060214Z 08008KT 30/22 A2987 RMK A01 T02990216  RH  061%=      5-min Rain = 0
KCH1 060215Z 08007KT 30/22 A2987 RMK A01 T02990216  RH  061%=      5-min Rain = 0
KCH1 060216Z 08008KT 30/22 A2987 RMK A01 T02980216  RH  061%=      5-min Rain = 0
KCH1 060217Z 09009KT 30/22 A2987 RMK A01 T02980216  RH  062%=      5-min Rain = 0
KCH1 060218Z 08008KT 30/22 A2987 RMK A01 T02980216  RH  062%=      5-min Rain = 0
KCH1 060219Z 08009KT 30/22 A2987 RMK A01 T02980216  RH  062%=      5-min Rain = 0
KCH1 060220Z 08010KT 30/22 A2987 RMK A01 T02970216  RH  062%=      5-min Rain = 0
KCH1 060221Z 08009KT 30/22 A2987 RMK A01 T02970216  RH  062%=      5-min Rain = 0
KCH1 060222Z 07008KT 30/22 A2987 RMK A01 T02970216  RH  062%=      5-min Rain = 0
KCH1 060223Z 09009KT 30/22 A2987 RMK A01 T02970216  RH  062%=      5-min Rain = 0
KCH1 060224Z 08007KT 30/22 A2987 RMK A01 T02970216  RH  062%=      5-min Rain = 0
KCH1 060225Z 08008KT 30/22 A2987 RMK A01 T02960216  RH  062%=      5-min Rain = 0
KCH1 060226Z 08008KT 30/22 A2987 RMK A01 T02960215  RH  062%=      5-min Rain = 0
KCH1 060227Z 09008KT 30/22 A2987 RMK A01 T02950216  RH  062%=      5-min Rain = 0
KCH1 060228Z 08011KT 30/22 A2987 RMK A01 T02950216  RH  062%=      5-min Rain = 0
KCH1 060229Z 08009KT 30/22 A2987 RMK A01 T02950216  RH  062%=      5-min Rain = 0
KCH1 060230Z 09008KT 30/22 A2987 RMK A01 T02950216  RH  062%=      5-min Rain = 0
KCH1 060231Z 09009KT 30/22 A2988 RMK A01 T02950216  RH  062%=      5-min Rain = 0
KCH1 060232Z 09007KT 30/22 A2988 RMK A01 T02960216  RH  062%=      5-min Rain = 0
KCH1 060233Z 09007KT 30/22 A2988 RMK A01 T02950216  RH  062%=      5-min Rain = 0
KCH1 060234Z 08007KT 30/22 A2988 RMK A01 T02950216  RH  063%=      5-min Rain = 0
KCH1 060235Z 10008KT 29/22 A2988 RMK A01 T02940216  RH  063%=      5-min Rain = 0
KCH1 060236Z 08008KT 29/22 A2988 RMK A01 T02940216  RH  063%=      5-min Rain = 0
KCH1 060237Z 09008KT 29/22 A2988 RMK A01 T02940216  RH  063%=      5-min Rain = 0
KCH1 060238Z 08007KT 29/22 A2988 RMK A01 T02940216  RH  063%=      5-min Rain = 0
KCH1 060239Z 08007KT 29/22 A2988 RMK A01 T02930216  RH  063%=      5-min Rain = 0
KCH1 060240Z 08007KT 29/22 A2988 RMK A01 T02930216  RH  063%=      5-min Rain = 0
KCH1 060241Z 08010KT 29/22 A2988 RMK A01 T02930216  RH  063%=      5-min Rain = 0
KCH1 060242Z 08008KT 29/22 A2988 RMK A01 T02930216  RH  063%=      5-min Rain = 0
KCH1 060243Z 08008KT 29/22 A2988 RMK A01 T02930216  RH  063%=      5-min Rain = 0
KCH1 060244Z 08007KT 29/22 A2988 RMK A01 T02930216  RH  063%=      5-min Rain = 0
KCH1 060245Z 08007G12KT 29/22 A2988 RMK A01 T02930216  RH  063%=      5-min Rain = 0
KCH1 060246Z 08009KT 29/22 A2988 RMK A01 T02930216  RH  063%=      5-min Rain = 0
KCH1 060247Z 08011KT 29/22 A2988 RMK A01 T02920215  RH  063%=      5-min Rain = 0
KCH1 060248Z 08008KT 29/22 A2988 RMK A01 T02920215  RH  063%=      5-min Rain = 0
KCH1 060249Z 08007KT 29/22 A2988 RMK A01 T02930216  RH  063%=      5-min Rain = 0
KCH1 060250Z 08007KT 29/22 A2988 RMK A01 T02920216  RH  063%=      5-min Rain = 0
KCH1 060251Z 07008KT 29/22 A2988 RMK A01 T02920215  RH  064%=      5-min Rain = 0
KCH1 060252Z 07009KT 29/22 A2988 RMK A01 T02910215  RH  064%=      5-min Rain = 0
KCH1 060253Z 07010KT 29/22 A2988 RMK A01 T02910215  RH  064%=      5-min Rain = 0
KCH1 060254Z 07009KT 29/22 A2988 RMK A01 T02920215  RH  063%=      5-min Rain = 0
KCH1 060255Z 07008KT 29/22 A2988 RMK A01 T02920215  RH  063%=      5-min Rain = 0
KCH1 060256Z 07009KT 29/22 A2988 RMK A01 T02920216  RH  064%=      5-min Rain = 0
KCH1 060257Z 07009KT 29/22 A2988 RMK A01 T02910216  RH  064%=      5-min Rain = 0
KCH1 060258Z 08008KT 29/22 A2988 RMK A01 T02910216  RH  064%=      5-min Rain = 0
KCH1 060259Z 08008KT 29/22 A2989 RMK A01 T02910216  RH  064%=      5-min Rain = 0
KCH1 060300Z 08008KT 29/22 A2989 RMK A01 T02900215  RH  064%=      5-min Rain = 0
KCH1 060301Z 08009KT 29/22 A2989 RMK A01 T02900215  RH  064%=      5-min Rain = 0
KCH1 060302Z 08007KT 29/22 A2989 RMK A01 T02900215  RH  064%=      5-min Rain = 0
KCH1 060303Z 08007KT 29/22 A2989 RMK A01 T02900216  RH  064%=      5-min Rain = 0
KCH1 060304Z 08008KT 29/22 A2989 RMK A01 T02890215  RH  064%=      5-min Rain = 0
KCH1 060305Z 08007KT 29/22 A2989 RMK A01 T02890215  RH  064%=      5-min Rain = 0
KCH1 060306Z 07008KT 29/22 A2989 RMK A01 T02890215  RH  064%=      5-min Rain = 0
KCH1 060307Z 08009KT 29/22 A2989 RMK A01 T02890215  RH  064%=      5-min Rain = 0
KCH1 060308Z 08010KT 29/22 A2989 RMK A01 T02890215  RH  064%=      5-min Rain = 0
KCH1 060309Z 07009KT 29/22 A2989 RMK A01 T02890215  RH  064%=      5-min Rain = 0
KCH1 060310Z 07008KT 29/22 A2989 RMK A01 T02890215  RH  064%=      5-min Rain = 0
KCH1 060311Z 07007KT 29/22 A2989 RMK A01 T02890215  RH  064%=      5-min Rain = 0
KCH1 060312Z 07007KT 29/22 A2989 RMK A01 T02880215  RH  065%=      5-min Rain = 0
KCH1 060313Z 07008KT 29/22 A2989 RMK A01 T02870215  RH  065%=      5-min Rain = 0
KCH1 060314Z 07009KT 29/22 A2989 RMK A01 T02870215  RH  065%=      5-min Rain = 0
KCH1 060315Z 07009KT 29/22 A2989 RMK A01 T02870215  RH  065%=      5-min Rain = 0
KCH1 060316Z 07009KT 29/22 A2989 RMK A01 T02870215  RH  065%=      5-min Rain = 0
KCH1 060317Z 07009KT 29/22 A2989 RMK A01 T02870215  RH  065%=      5-min Rain = 0
KCH1 060318Z 07008KT 29/22 A2989 RMK A01 T02870215  RH  065%=      5-min Rain = 0
KCH1 060319Z 07009KT 29/21 A2989 RMK A01 T02870214  RH  065%=      5-min Rain = 0
KCH1 060320Z 07009KT 29/21 A2989 RMK A01 T02870214  RH  065%=      5-min Rain = 0
KCH1 060321Z 07008KT 29/21 A2989 RMK A01 T02870214  RH  065%=      5-min Rain = 0
KCH1 060322Z 07007KT 29/21 A2989 RMK A01 T02870214  RH  065%=      5-min Rain = 0
KCH1 060323Z 07009KT 29/21 A2989 RMK A01 T02860214  RH  065%=      5-min Rain = 0
KCH1 060324Z 07007KT 29/21 A2989 RMK A01 T02860214  RH  065%=      5-min Rain = 0
KCH1 060325Z 07009KT 29/22 A2989 RMK A01 T02860215  RH  065%=      5-min Rain = 0
KCH1 060326Z 07007KT 29/21 A299 RMK A01 T02850214  RH  065%=      5-min Rain = 0
KCH1 060327Z 06009KT 29/21 A299 RMK A01 T02850214  RH  065%=      5-min Rain = 0
KCH1 060328Z 06010KT 29/21 A299 RMK A01 T02850214  RH  065%=      5-min Rain = 0
KCH1 060329Z 06009KT 29/21 A299 RMK A01 T02850214  RH  065%=      5-min Rain = 0
KCH1 060330Z 06008KT 29/21 A299 RMK A01 T02850214  RH  065%=      5-min Rain = 0
KCH1 060331Z 05008KT 29/21 A299 RMK A01 T02850214  RH  065%=      5-min Rain = 0
KCH1 060332Z 05008KT 29/21 A299 RMK A01 T02850214  RH  065%=      5-min Rain = 0
KCH1 060333Z 05008KT 28/21 A299 RMK A01 T02840214  RH  066%=      5-min Rain = 0
KCH1 060334Z 06008KT 28/21 A299 RMK A01 T02840214  RH  066%=      5-min Rain = 0
KCH1 060335Z 05009KT 28/21 A299 RMK A01 T02840214  RH  066%=      5-min Rain = 0
KCH1 060336Z 05008KT 28/21 A299 RMK A01 T02840213  RH  066%=      5-min Rain = 0
KCH1 060337Z 05007KT 28/21 A299 RMK A01 T02840214  RH  066%=      5-min Rain = 0
KCH1 060338Z 05007KT 28/21 A299 RMK A01 T02830214  RH  066%=      5-min Rain = 0
KCH1 060339Z 05007KT 28/21 A299 RMK A01 T02830213  RH  066%=      5-min Rain = 0
KCH1 060340Z 06007KT 28/21 A299 RMK A01 T02820213  RH  066%=      5-min Rain = 0
KCH1 060341Z 06008KT 28/21 A299 RMK A01 T02820213  RH  066%=      5-min Rain = 0
KCH1 060342Z 06006KT 28/21 A299 RMK A01 T02810213  RH  066%=      5-min Rain = 0
KCH1 060343Z 06008KT 28/21 A299 RMK A01 T02810213  RH  067%=      5-min Rain = 0
KCH1 060344Z 06007KT 28/21 A299 RMK A01 T02800213  RH  067%=      5-min Rain = 0
KCH1 060345Z 06008KT 28/21 A299 RMK A01 T02800212  RH  067%=      5-min Rain = 0
KCH1 060346Z 06009KT 28/21 A299 RMK A01 T02800212  RH  067%=      5-min Rain = 0
KCH1 060347Z 06008KT 28/21 A299 RMK A01 T02800211  RH  066%=      5-min Rain = 0
KCH1 060348Z 06008KT 28/21 A299 RMK A01 T02800211  RH  066%=      5-min Rain = 0
KCH1 060349Z 06008KT 28/21 A299 RMK A01 T02790211  RH  066%=      5-min Rain = 0
KCH1 060350Z 06008KT 28/21 A299 RMK A01 T02800211  RH  066%=      5-min Rain = 0
KCH1 060351Z 06008KT 28/21 A299 RMK A01 T02800211  RH  066%=      5-min Rain = 0
KCH1 060352Z 06008KT 28/21 A299 RMK A01 T02790210  RH  066%=      5-min Rain = 0
KCH1 060353Z 06007KT 28/21 A299 RMK A01 T02800210  RH  066%=      5-min Rain = 0
KCH1 060354Z 07008KT 28/21 A299 RMK A01 T02790210  RH  066%=      5-min Rain = 0
KCH1 060355Z 06008KT 28/21 A299 RMK A01 T02790210  RH  066%=      5-min Rain = 0
KCH1 060356Z 07007KT 28/21 A299 RMK A01 T02790210  RH  066%=      5-min Rain = 0
KCH1 060357Z 06007KT 28/21 A299 RMK A01 T02790210  RH  066%=      5-min Rain = 0
KCH1 060358Z 06008KT 28/21 A299 RMK A01 T02780209  RH  066%=      5-min Rain = 0
KCH1 060359Z 06007KT 28/21 A2989 RMK A01 T02780210  RH  066%=      5-min Rain = 0
KCH1 060400Z 06007KT 28/21 A2989 RMK A01 T02780209  RH  066%=      5-min Rain = 0
KCH1 060401Z 06008KT 28/21 A2989 RMK A01 T02770209  RH  066%=      5-min Rain = 0
KCH1 060402Z 06009KT 28/21 A2989 RMK A01 T02780209  RH  066%=      5-min Rain = 0
KCH1 060403Z 06009KT 28/21 A2989 RMK A01 T02780209  RH  066%=      5-min Rain = 0
KCH1 060404Z 06010KT 28/21 A2989 RMK A01 T02770209  RH  066%=      5-min Rain = 0
KCH1 060405Z 06010KT 28/21 A2989 RMK A01 T02770209  RH  066%=      5-min Rain = 0
KCH1 060406Z 06009KT 28/21 A2989 RMK A01 T02770208  RH  066%=      5-min Rain = 0
KCH1 060407Z 05009KT 28/21 A299 RMK A01 T02770208  RH  066%=      5-min Rain = 0
KCH1 060408Z 06009KT 28/21 A299 RMK A01 T02770208  RH  066%=      5-min Rain = 0
KCH1 060409Z 06010KT 28/21 A299 RMK A01 T02770208  RH  066%=      5-min Rain = 0
KCH1 060410Z 06010KT 28/21 A299 RMK A01 T02770208  RH  066%=      5-min Rain = 0
KCH1 060411Z 06008KT 28/21 A299 RMK A01 T02770208  RH  066%=      5-min Rain = 0
KCH1 060412Z 06010KT 28/21 A299 RMK A01 T02760208  RH  066%=      5-min Rain = 0
KCH1 060413Z 06010KT 28/21 A299 RMK A01 T02760207  RH  066%=      5-min Rain = 0
KCH1 060414Z 06009KT 28/21 A299 RMK A01 T02760207  RH  066%=      5-min Rain = 0
KCH1 060415Z 06010KT 28/21 A299 RMK A01 T02760207  RH  066%=      5-min Rain = 0
KCH1 060416Z 06010KT 28/21 A2989 RMK A01 T02750207  RH  066%=      5-min Rain = 0
KCH1 060417Z 06009KT 28/21 A299 RMK A01 T02750207  RH  066%=      5-min Rain = 0
KCH1 060418Z 06010KT 28/21 A299 RMK A01 T02750207  RH  066%=      5-min Rain = 0
KCH1 060419Z 06009KT 28/21 A299 RMK A01 T02750206  RH  066%=      5-min Rain = 0
KCH1 060420Z 06010KT 28/21 A299 RMK A01 T02750206  RH  066%=      5-min Rain = 0
KCH1 060421Z 06010KT 28/21 A299 RMK A01 T02750206  RH  066%=      5-min Rain = 0
KCH1 060422Z 06010KT 28/21 A299 RMK A01 T02760206  RH  066%=      5-min Rain = 0
KCH1 060423Z 06009KT 28/21 A299 RMK A01 T02760206  RH  066%=      5-min Rain = 0
KCH1 060424Z 06009KT 28/21 A299 RMK A01 T02760206  RH  066%=      5-min Rain = 0
KCH1 060425Z 06008KT 28/21 A299 RMK A01 T02760206  RH  066%=      5-min Rain = 0
KCH1 060426Z 06008KT 28/21 A299 RMK A01 T02750205  RH  066%=      5-min Rain = 0
KCH1 060427Z 06008KT 28/21 A299 RMK A01 T02750205  RH  065%=      5-min Rain = 0
KCH1 060428Z 05008KT 28/20 A299 RMK A01 T02750204  RH  065%=      5-min Rain = 0
KCH1 060429Z 06007KT 28/20 A2991 RMK A01 T02760204  RH  065%=      5-min Rain = 0
KCH1 060430Z 06007KT 28/21 A2991 RMK A01 T02750205  RH  065%=      5-min Rain = 0
KCH1 060431Z 06007KT 28/20 A2991 RMK A01 T02750204  RH  065%=      5-min Rain = 0
KCH1 060432Z 06008KT 27/20 A2991 RMK A01 T02740204  RH  065%=      5-min Rain = 0
KCH1 060433Z 06008KT 27/20 A2991 RMK A01 T02740204  RH  065%=      5-min Rain = 0
KCH1 060434Z 07008KT 28/20 A2991 RMK A01 T02750204  RH  065%=      5-min Rain = 0
KCH1 060435Z 06008KT 27/20 A2991 RMK A01 T02740204  RH  065%=      5-min Rain = 0
KCH1 060436Z 07008KT 27/20 A2991 RMK A01 T02740204  RH  065%=      5-min Rain = 0
KCH1 060437Z 07009KT 27/20 A2991 RMK A01 T02740203  RH  065%=      5-min Rain = 0
KCH1 060438Z 06007KT 27/20 A2991 RMK A01 T02740203  RH  065%=      5-min Rain = 0
KCH1 060439Z 06009KT 27/20 A2991 RMK A01 T02740204  RH  065%=      5-min Rain = 0
KCH1 060440Z 07008KT 27/20 A2991 RMK A01 T02740204  RH  065%=      5-min Rain = 0
KCH1 060441Z 07007KT 27/20 A2991 RMK A01 T02740204  RH  066%=      5-min Rain = 0
KCH1 060442Z 06009KT 27/20 A2991 RMK A01 T02740204  RH  066%=      5-min Rain = 0
KCH1 060443Z 07007KT 27/20 A2991 RMK A01 T02730204  RH  066%=      5-min Rain = 0
KCH1 060444Z 07009KT 27/20 A2991 RMK A01 T02730204  RH  066%=      5-min Rain = 0
KCH1 060445Z 06008KT 27/20 A2991 RMK A01 T02730204  RH  066%=      5-min Rain = 0
KCH1 060446Z 06008KT 27/20 A2992 RMK A01 T02730203  RH  066%=      5-min Rain = 0
KCH1 060447Z 07007KT 27/20 A2992 RMK A01 T02730204  RH  066%=      5-min Rain = 0
KCH1 060448Z 07007KT 27/20 A2992 RMK A01 T02730204  RH  066%=      5-min Rain = 0
KCH1 060449Z 06007KT 27/20 A2992 RMK A01 T02730204  RH  066%=      5-min Rain = 0
KCH1 060450Z 07008KT 27/20 A2992 RMK A01 T02720204  RH  066%=      5-min Rain = 0
KCH1 060451Z 07008KT 27/20 A2992 RMK A01 T02720204  RH  066%=      5-min Rain = 0
KCH1 060452Z 07010KT 27/20 A2992 RMK A01 T02720204  RH  066%=      5-min Rain = 0
KCH1 060453Z 07008KT 27/20 A2992 RMK A01 T02720204  RH  066%=      5-min Rain = 0
KCH1 060454Z 07008KT 27/20 A2992 RMK A01 T02720204  RH  066%=      5-min Rain = 0
KCH1 060455Z 07008KT 27/20 A2992 RMK A01 T02720204  RH  066%=      5-min Rain = 0
KCH1 060456Z 07006KT 27/20 A2992 RMK A01 T02720204  RH  066%=      5-min Rain = 0
KCH1 060457Z 06006KT 27/20 A2992 RMK A01 T02720204  RH  066%=      5-min Rain = 0
KCH1 060458Z 07007KT 27/20 A2992 RMK A01 T02720204  RH  067%=      5-min Rain = 0
KCH1 060459Z 07008KT 27/20 A2991 RMK A01 T02720204  RH  067%=      5-min Rain = 0

Page generated in 0.1114 seconds.